Wetterdaten: Samstag, 29.08.2020
Datum Zeit Temp. Aussen Temp. o. S. Temp +5cm Feuchte Auss Luftdruck Regen Sonnenschein Regendauer Solar Windben Empfang
29.08.2020 00:00 14,7 C 13,3 C 13,3 C 85 % 1001,5 hPa 0,0 l/m 0 min 0 min 0 W/m 0,0 km/h (0 Bft) 97,14 %
29.08.2020 00:02 14,7 C 13,3 C 13,3 C 85 % 1001,5 hPa 0,0 l/m 0 min 0 min 0 W/m 0,0 km/h (0 Bft) 95,12 %
29.08.2020 00:04 14,7 C 13,3 C 13,3 C 85 % 1001,5 hPa 0,0 l/m 0 min 0 min 0 W/m 6,4 km/h (2 Bft) 93,48 %
29.08.2020 00:08 14,7 C 13,3 C 13,3 C 85 % 1001,6 hPa 0,0 l/m 0 min 0 min 0 W/m 6,4 km/h (2 Bft) 96,84 %
29.08.2020 00:10 14,7 C 13,3 C 13,3 C 85 % 1001,6 hPa 0,0 l/m 0 min 0 min 0 W/m 6,4 km/h (2 Bft) 95,74 %
29.08.2020 00:12 14,7 C 13,3 C 13,3 C 85 % 1001,6 hPa 0,0 l/m 0 min 0 min 0 W/m 3,2 km/h (1 Bft) 95,35 %
29.08.2020 00:14 14,6 C 13,3 C 13,3 C 85 % 1001,6 hPa 0,0 l/m 0 min 0 min 0 W/m 0,0 km/h (0 Bft) 93,62 %
29.08.2020 00:16 14,6 C 13,3 C 13,3 C 85 % 1001,6 hPa 0,0 l/m 0 min 0 min 0 W/m 0,0 km/h (0 Bft) 95,74 %
29.08.2020 00:18 14,6 C 13,3 C 13,3 C 85 % 1001,6 hPa 0,0 l/m 0 min 0 min 0 W/m 0,0 km/h (0 Bft) 93,62 %
29.08.2020 00:20 14,6 C 13,3 C 13,3 C 85 % 1001,6 hPa 0,0 l/m 0 min 0 min 0 W/m 0,0 km/h (0 Bft) 95,65 %
29.08.2020 00:22 14,6 C 13,3 C 13,3 C 85 % 1001,6 hPa 0,0 l/m 0 min 0 min 0 W/m 3,2 km/h (1 Bft) 95,74 %
29.08.2020 00:24 14,6 C 13,3 C 13,3 C 85 % 1001,6 hPa 0,0 l/m 0 min 0 min 0 W/m 0,0 km/h (0 Bft) 97,87 %
29.08.2020 00:26 14,6 C 13,3 C 13,3 C 85 % 1001,6 hPa 0,0 l/m 0 min 0 min 0 W/m 0,0 km/h (0 Bft) 95,74 %
29.08.2020 00:28 14,5 C 13,3 C 13,3 C 86 % 1001,6 hPa 0,0 l/m 0 min 0 min 0 W/m 0,0 km/h (0 Bft) 97,87 %
29.08.2020 00:30 14,5 C 13,3 C 13,3 C 86 % 1001,6 hPa 0,0 l/m 0 min 0 min 0 W/m 0,0 km/h (0 Bft) 97,87 %
29.08.2020 00:32 14,5 C 12,8 C 13,3 C 86 % 1001,6 hPa 0,0 l/m 0 min 0 min 0 W/m 0,0 km/h (0 Bft) 97,83 %
29.08.2020 00:34 14,4 C 12,8 C 13,3 C 86 % 1001,6 hPa 0,0 l/m 0 min 0 min 0 W/m 0,0 km/h (0 Bft) 97,87 %
29.08.2020 00:36 14,4 C 12,8 C 12,8 C 86 % 1001,6 hPa 0,0 l/m 0 min 0 min 0 W/m 0,0 km/h (0 Bft) 97,87 %
29.08.2020 00:38 14,4 C 12,8 C 12,8 C 86 % 1001,6 hPa 0,0 l/m 0 min 0 min 0 W/m 0,0 km/h (0 Bft) 97,87 %
29.08.2020 00:40 14,4 C 12,8 C 12,8 C 86 % 1001,6 hPa 0,0 l/m 0 min 0 min 0 W/m 0,0 km/h (0 Bft) 100,00 %
29.08.2020 00:42 14,3 C 12,8 C 12,8 C 86 % 1001,7 hPa 0,0 l/m 0 min 0 min 0 W/m 0,0 km/h (0 Bft) 100,00 %
29.08.2020 00:44 14,3 C 12,8 C 12,8 C 86 % 1001,7 hPa 0,0 l/m 0 min 0 min 0 W/m 0,0 km/h (0 Bft) 100,00 %
29.08.2020 00:46 14,3 C 12,8 C 12,8 C 86 % 1001,6 hPa 0,0 l/m 0 min 0 min 0 W/m 0,0 km/h (0 Bft) 97,87 %
29.08.2020 00:48 14,3 C 12,8 C 12,8 C 86 % 1001,6 hPa 0,0 l/m 0 min 0 min 0 W/m 3,2 km/h (1 Bft) 100,00 %
29.08.2020 00:50 14,3 C 12,8 C 12,8 C 86 % 1001,6 hPa 0,0 l/m 0 min 0 min 0 W/m 0,0 km/h (0 Bft) 100,00 %
29.08.2020 00:52 14,3 C 12,8 C 12,8 C 86 % 1001,6 hPa 0,0 l/m 0 min 0 min 0 W/m 0,0 km/h (0 Bft) 100,00 %
29.08.2020 00:54 14,3 C 12,8 C 12,8 C 86 % 1001,7 hPa 0,0 l/m 0 min 0 min 0 W/m 3,2 km/h (1 Bft) 100,00 %
29.08.2020 00:56 14,3 C 12,8 C 12,8 C 86 % 1001,7 hPa 0,0 l/m 0 min 0 min 0 W/m 6,4 km/h (2 Bft) 100,00 %
29.08.2020 00:58 14,3 C 12,8 C 12,8 C 86 % 1001,7 hPa 0,0 l/m 0 min 0 min 0 W/m 3,2 km/h (1 Bft) 100,00 %
29.08.2020 01:00 14,3 C 12,8 C 12,8 C 86 % 1001,8 hPa 0,0 l/m 0 min 0 min 0 W/m 0,0 km/h (0 Bft) 100,00 %
29.08.2020 01:02 14,3 C 12,8 C 12,8 C 87 % 1001,8 hPa 0,0 l/m 0 min 0 min 0 W/m 3,2 km/h (1 Bft) 97,87 %
29.08.2020 01:04 14,2 C 12,8 C 12,8 C 87 % 1001,8 hPa 0,0 l/m 0 min 0 min 0 W/m 3,2 km/h (1 Bft) 100,00 %
29.08.2020 01:06 14,2 C 12,8 C 12,8 C 87 % 1001,8 hPa 0,0 l/m 0 min 0 min 0 W/m 12,9 km/h (3 Bft) 97,83 %
29.08.2020 01:08 14,2 C 12,8 C 12,8 C 87 % 1001,8 hPa 0,0 l/m 0 min 0 min 0 W/m 12,9 km/h (3 Bft) 100,00 %
29.08.2020 01:10 14,1 C 12,8 C 12,8 C 87 % 1001,9 hPa 0,0 l/m 0 min 0 min 0 W/m 9,7 km/h (2 Bft) 100,00 %
29.08.2020 01:12 14,1 C 12,8 C 12,8 C 87 % 1001,9 hPa 0,0 l/m 0 min 0 min 0 W/m 3,2 km/h (1 Bft) 100,00 %
29.08.2020 01:14 14,1 C 12,8 C 12,8 C 87 % 1001,9 hPa 0,0 l/m 0 min 0 min 0 W/m 0,0 km/h (0 Bft) 100,00 %
29.08.2020 01:16 14,1 C 12,8 C 12,8 C 87 % 1001,9 hPa 0,0 l/m 0 min 0 min 0 W/m 3,2 km/h (1 Bft) 97,83 %
29.08.2020 01:18 14,1 C 12,8 C 12,8 C 87 % 1002,0 hPa 0,0 l/m 0 min 0 min 0 W/m 3,2 km/h (1 Bft) 100,00 %
29.08.2020 01:20 14,0 C 12,8 C 12,8 C 87 % 1002,0 hPa 0,0 l/m 0 min 0 min 0 W/m 3,2 km/h (1 Bft) 100,00 %
29.08.2020 01:22 14,0 C 12,8 C 12,8 C 87 % 1002,0 hPa 0,0 l/m 0 min 0 min 0 W/m 0,0 km/h (0 Bft) 100,00 %
29.08.2020 01:24 14,0 C 12,8 C 12,8 C 87 % 1002,0 hPa 0,0 l/m 0 min 0 min 0 W/m 0,0 km/h (0 Bft) 100,00 %
29.08.2020 01:26 13,9 C 12,8 C 12,8 C 87 % 1002,0 hPa 0,0 l/m 0 min 0 min 0 W/m 0,0 km/h (0 Bft) 100,00 %
29.08.2020 01:28 13,9 C 12,8 C 12,8 C 87 % 1002,0 hPa 0,0 l/m 0 min 0 min 0 W/m 0,0 km/h (0 Bft) 100,00 %
29.08.2020 01:30 13,9 C 12,8 C 12,8 C 88 % 1002,1 hPa 0,0 l/m 0 min 0 min 0 W/m 0,0 km/h (0 Bft) 97,87 %
29.08.2020 01:32 13,9 C 12,8 C 12,8 C 88 % 1002,0 hPa 0,0 l/m 0 min 0 min 0 W/m 0,0 km/h (0 Bft) 100,00 %
29.08.2020 01:34 13,9 C 12,8 C 12,8 C 88 % 1002,0 hPa 0,0 l/m 0 min 0 min 0 W/m 0,0 km/h (0 Bft) 97,87 %
29.08.2020 01:36 13,9 C 12,8 C 12,8 C 88 % 1002,1 hPa 0,0 l/m 0 min 0 min 0 W/m 0,0 km/h (0 Bft) 97,87 %
29.08.2020 01:38 13,8 C 12,8 C 12,8 C 88 % 1002,1 hPa 0,0 l/m 0 min 0 min 0 W/m 0,0 km/h (0 Bft) 100,00 %
29.08.2020 01:40 13,8 C 12,8 C 12,8 C 88 % 1002,0 hPa 0,0 l/m 0 min 0 min 0 W/m 0,0 km/h (0 Bft) 100,00 %
29.08.2020 01:42 13,8 C 12,8 C 12,8 C 88 % 1002,0 hPa 0,0 l/m 0 min 0 min 0 W/m 0,0 km/h (0 Bft) 100,00 %
29.08.2020 01:44 13,8 C 12,8 C 12,8 C 88 % 1002,0 hPa 0,0 l/m 0 min 0 min 0 W/m 0,0 km/h (0 Bft) 97,73 %
29.08.2020 01:46 13,8 C 12,8 C 12,8 C 88 % 1002,0 hPa 0,0 l/m 0 min 0 min 0 W/m 0,0 km/h (0 Bft) 100,00 %
29.08.2020 01:48 13,8 C 12,8 C 12,8 C 88 % 1002,0 hPa 0,0 l/m 0 min 0 min 0 W/m 0,0 km/h (0 Bft) 100,00 %
29.08.2020 01:50 13,8 C 12,8 C 12,8 C 88 % 1002,0 hPa 0,0 l/m 0 min 0 min 0 W/m 6,4 km/h (2 Bft) 97,87 %
29.08.2020 01:52 13,8 C 12,2 C 12,8 C 88 % 1002,0 hPa 0,0 l/m 0 min 0 min 0 W/m 0,0 km/h (0 Bft) 97,83 %
29.08.2020 01:54 13,7 C 12,2 C 12,2 C 88 % 1002,0 hPa 0,0 l/m 0 min 0 min 0 W/m 0,0 km/h (0 Bft) 100,00 %
29.08.2020 01:56 13,7 C 12,2 C 12,2 C 88 % 1002,0 hPa 0,0 l/m 0 min 0 min 0 W/m 0,0 km/h (0 Bft) 97,87 %
29.08.2020 01:58 13,7 C 12,2 C 12,2 C 88 % 1002,1 hPa 0,0 l/m 0 min 0 min 0 W/m 12,9 km/h (3 Bft) 97,87 %
29.08.2020 02:00 13,7 C 12,2 C 12,2 C 88 % 1002,0 hPa 0,0 l/m 0 min 0 min 0 W/m 6,4 km/h (2 Bft) 100,00 %
29.08.2020 02:02 13,7 C 12,2 C 12,2 C 88 % 1002,0 hPa 0,0 l/m 0 min 0 min 0 W/m 3,2 km/h (1 Bft) 100,00 %
29.08.2020 02:04 13,7 C 12,2 C 12,2 C 89 % 1002,0 hPa 0,0 l/m 0 min 0 min 0 W/m 0,0 km/h (0 Bft) 97,62 %
29.08.2020 02:06 13,7 C 12,2 C 12,2 C 89 % 1002,0 hPa 0,0 l/m 0 min 0 min 0 W/m 0,0 km/h (0 Bft) 97,87 %
29.08.2020 02:08 13,6 C 12,2 C 12,2 C 89 % 1001,9 hPa 0,0 l/m 0 min 0 min 0 W/m 0,0 km/h (0 Bft) 100,00 %
29.08.2020 02:10 13,6 C 12,2 C 12,2 C 89 % 1002,0 hPa 0,0 l/m 0 min 0 min 0 W/m 0,0 km/h (0 Bft) 96,30 %
29.08.2020 02:12 13,6 C 12,2 C 12,2 C 89 % 1002,0 hPa 0,0 l/m 0 min 0 min 0 W/m 0,0 km/h (0 Bft) 95,74 %
29.08.2020 02:14 13,6 C 12,2 C 12,2 C 89 % 1001,9 hPa 0,0 l/m 0 min 0 min 0 W/m 0,0 km/h (0 Bft) 97,83 %
29.08.2020 02:16 13,6 C 12,2 C 12,2 C 89 % 1002,0 hPa 0,0 l/m 0 min 0 min 0 W/m 0,0 km/h (0 Bft) 95,74 %
29.08.2020 02:18 13,6 C 12,2 C 12,2 C 89 % 1002,0 hPa 0,0 l/m 0 min 0 min 0 W/m 3,2 km/h (1 Bft) 97,87 %
29.08.2020 02:20 13,5 C 12,2 C 12,2 C 89 % 1002,0 hPa 0,0 l/m 0 min 0 min 0 W/m 6,4 km/h (2 Bft) 97,87 %
29.08.2020 02:22 13,5 C 12,2 C 12,2 C 89 % 1002,0 hPa 0,0 l/m 0 min 0 min 0 W/m 6,4 km/h (2 Bft) 95,74 %
29.08.2020 02:24 13,4 C 12,2 C 12,2 C 89 % 1002,0 hPa 0,0 l/m 0 min 0 min 0 W/m 6,4 km/h (2 Bft) 95,74 %
29.08.2020 02:26 13,4 C 12,2 C 12,2 C 89 % 1001,9 hPa 0,0 l/m 0 min 0 min 0 W/m 12,9 km/h (3 Bft) 95,65 %
29.08.2020 02:28 13,4 C 12,2 C 12,2 C 89 % 1002,0 hPa 0,0 l/m 0 min 0 min 0 W/m 6,4 km/h (2 Bft) 95,74 %
29.08.2020 02:30 13,4 C 12,2 C 12,2 C 89 % 1002,0 hPa 0,0 l/m 0 min 0 min 0 W/m 0,0 km/h (0 Bft) 97,87 %
29.08.2020 02:32 13,4 C 12,2 C 12,2 C 89 % 1002,0 hPa 0,0 l/m 0 min 0 min 0 W/m 6,4 km/h (2 Bft) 95,83 %
29.08.2020 02:34 13,4 C 12,2 C 12,2 C 89 % 1002,0 hPa 0,0 l/m 0 min 0 min 0 W/m 0,0 km/h (0 Bft) 93,62 %
29.08.2020 02:36 13,3 C 12,2 C 12,2 C 89 % 1002,0 hPa 0,0 l/m 0 min 0 min 0 W/m 0,0 km/h (0 Bft) 91,49 %
29.08.2020 02:38 13,3 C 12,2 C 12,2 C 89 % 1002,0 hPa 0,0 l/m 0 min 0 min 0 W/m 0,0 km/h (0 Bft) 93,48 %
29.08.2020 02:40 13,3 C 12,2 C 12,2 C 90 % 1002,1 hPa 0,0 l/m 0 min 0 min 0 W/m 0,0 km/h (0 Bft) 93,62 %
29.08.2020 02:42 13,3 C 12,2 C 12,2 C 90 % 1002,1 hPa 0,0 l/m 0 min 0 min 0 W/m 0,0 km/h (0 Bft) 93,62 %
29.08.2020 02:44 13,3 C 12,2 C 12,2 C 90 % 1002,1 hPa 0,0 l/m 0 min 0 min 0 W/m 0,0 km/h (0 Bft) 93,62 %
29.08.2020 02:46 13,3 C 12,2 C 12,2 C 90 % 1002,1 hPa 0,0 l/m 0 min 0 min 0 W/m 0,0 km/h (0 Bft) 92,68 %
29.08.2020 02:48 13,3 C 12,2 C 12,2 C 90 % 1002,1 hPa 0,0 l/m 0 min 0 min 0 W/m 0,0 km/h (0 Bft) 93,62 %
29.08.2020 02:50 13,2 C 12,2 C 12,2 C 90 % 1002,1 hPa 0,0 l/m 0 min 0 min 0 W/m 0,0 km/h (0 Bft) 91,30 %
29.08.2020 02:52 13,2 C 12,2 C 12,2 C 90 % 1002,1 hPa 0,0 l/m 0 min 0 min 0 W/m 0,0 km/h (0 Bft) 93,62 %
29.08.2020 02:54 13,2 C 12,2 C 12,2 C 90 % 1002,2 hPa 0,0 l/m 0 min 0 min 0 W/m 3,2 km/h (1 Bft) 91,49 %
29.08.2020 02:56 13,2 C 12,2 C 12,2 C 90 % 1002,1 hPa 0,0 l/m 0 min 0 min 0 W/m 3,2 km/h (1 Bft) 93,62 %
29.08.2020 02:58 13,2 C 12,2 C 12,2 C 90 % 1002,1 hPa 0,0 l/m 0 min 0 min 0 W/m 0,0 km/h (0 Bft) 93,62 %
29.08.2020 03:00 13,2 C 12,2 C 12,2 C 90 % 1002,1 hPa 0,0 l/m 0 min 0 min 0 W/m 0,0 km/h (0 Bft) 93,62 %
29.08.2020 03:02 13,2 C 12,2 C 12,2 C 90 % 1002,1 hPa 0,0 l/m 0 min 0 min 0 W/m 0,0 km/h (0 Bft) 95,56 %
29.08.2020 03:04 13,2 C 12,2 C 12,2 C 90 % 1002,2 hPa 0,0 l/m 0 min 0 min 0 W/m 0,0 km/h (0 Bft) 95,74 %
29.08.2020 03:06 13,2 C 12,2 C 12,2 C 90 % 1002,2 hPa 0,0 l/m 0 min 0 min 0 W/m 0,0 km/h (0 Bft) 95,74 %
29.08.2020 03:08 13,2 C 12,2 C 12,2 C 90 % 1002,2 hPa 0,0 l/m 0 min 0 min 0 W/m 0,0 km/h (0 Bft) 95,74 %
29.08.2020 03:10 13,2 C 12,2 C 12,2 C 90 % 1002,2 hPa 0,0 l/m 0 min 0 min 0 W/m 0,0 km/h (0 Bft) 93,62 %
29.08.2020 03:12 13,2 C 12,2 C 12,2 C 90 % 1002,1 hPa 0,0 l/m 0 min 0 min 0 W/m 0,0 km/h (0 Bft) 95,74 %
29.08.2020 03:14 13,2 C 12,2 C 12,2 C 90 % 1002,1 hPa 0,0 l/m 0 min 0 min 0 W/m 0,0 km/h (0 Bft) 95,65 %
29.08.2020 03:16 13,2 C 12,2 C 12,2 C 90 % 1002,1 hPa 0,0 l/m 0 min 0 min 0 W/m 0,0 km/h (0 Bft) 95,74 %
29.08.2020 03:18 13,1 C 12,2 C 12,2 C 90 % 1002,1 hPa 0,0 l/m 0 min 0 min 0 W/m 6,4 km/h (2 Bft) 95,74 %
29.08.2020 03:20 13,1 C 12,2 C 12,2 C 90 % 1002,1 hPa 0,0 l/m 0 min 0 min 0 W/m 12,9 km/h (3 Bft) 95,74 %
29.08.2020 03:22 13,1 C 12,2 C 12,2 C 90 % 1002,1 hPa 0,0 l/m 0 min 0 min 0 W/m 3,2 km/h (1 Bft) 95,74 %
29.08.2020 03:24 13,1 C 12,2 C 12,2 C 90 % 1002,1 hPa 0,0 l/m 0 min 0 min 0 W/m 3,2 km/h (1 Bft) 95,74 %
29.08.2020 03:26 13,1 C 12,2 C 12,2 C 91 % 1002,1 hPa 0,0 l/m 0 min 0 min 0 W/m 6,4 km/h (2 Bft) 89,13 %
29.08.2020 03:28 13,1 C 12,2 C 12,2 C 91 % 1002,1 hPa 0,0 l/m 0 min 0 min 0 W/m 0,0 km/h (0 Bft) 100,00 %
29.08.2020 03:30 13,1 C 12,2 C 12,2 C 91 % 1002,1 hPa 0,0 l/m 0 min 0 min 0 W/m 0,0 km/h (0 Bft) 100,00 %
29.08.2020 03:32 13,1 C 12,2 C 12,2 C 91 % 1002,2 hPa 0,0 l/m 0 min 0 min 0 W/m 0,0 km/h (0 Bft) 97,87 %
29.08.2020 03:34 13,1 C 12,2 C 12,2 C 91 % 1002,1 hPa 0,0 l/m 0 min 0 min 0 W/m 0,0 km/h (0 Bft) 100,00 %
29.08.2020 03:36 13,1 C 12,2 C 12,2 C 91 % 1002,1 hPa 0,0 l/m 0 min 0 min 0 W/m 0,0 km/h (0 Bft) 100,00 %
29.08.2020 03:38 13,1 C 12,2 C 12,2 C 91 % 1002,1 hPa 0,0 l/m 0 min 0 min 0 W/m 3,2 km/h (1 Bft) 100,00 %
29.08.2020 03:40 13,1 C 12,2 C 12,2 C 91 % 1002,1 hPa 0,0 l/m 0 min 0 min 0 W/m 0,0 km/h (0 Bft) 97,87 %
29.08.2020 03:42 13,1 C 12,2 C 12,2 C 91 % 1002,1 hPa 0,0 l/m 0 min 0 min 0 W/m 6,4 km/h (2 Bft) 97,87 %
29.08.2020 03:44 13,1 C 12,2 C 12,2 C 91 % 1002,1 hPa 0,0 l/m 0 min 0 min 0 W/m 6,4 km/h (2 Bft) 97,87 %
29.08.2020 03:46 13,1 C 12,2 C 12,2 C 91 % 1002,1 hPa 0,0 l/m 0 min 0 min 0 W/m 3,2 km/h (1 Bft) 100,00 %
29.08.2020 03:48 13,1 C 12,2 C 12,2 C 91 % 1002,1 hPa 0,0 l/m 0 min 0 min 0 W/m 0,0 km/h (0 Bft) 100,00 %
29.08.2020 03:50 13,1 C 12,2 C 12,2 C 91 % 1002,0 hPa 0,0 l/m 0 min 0 min 0 W/m 0,0 km/h (0 Bft) 100,00 %
29.08.2020 03:52 13,1 C 12,2 C 12,2 C 91 % 1002,1 hPa 0,0 l/m 0 min 0 min 0 W/m 0,0 km/h (0 Bft) 95,74 %
29.08.2020 03:54 13,1 C 12,2 C 12,2 C 91 % 1002,0 hPa 0,0 l/m 0 min 0 min 0 W/m 3,2 km/h (1 Bft) 100,00 %
29.08.2020 03:56 13,0 C 12,2 C 12,2 C 91 % 1002,0 hPa 0,0 l/m 0 min 0 min 0 W/m 0,0 km/h (0 Bft) 100,00 %
29.08.2020 03:58 13,0 C 12,2 C 12,2 C 91 % 1002,0 hPa 0,0 l/m 0 min 0 min 0 W/m 3,2 km/h (1 Bft) 100,00 %
29.08.2020 04:00 13,0 C 12,2 C 12,2 C 91 % 1002,0 hPa 0,0 l/m 0 min 0 min 0 W/m 0,0 km/h (0 Bft) 100,00 %
29.08.2020 04:02 13,0 C 12,2 C 12,2 C 91 % 1001,9 hPa 0,0 l/m 0 min 0 min 0 W/m 0,0 km/h (0 Bft) 100,00 %
29.08.2020 04:04 13,0 C 12,2 C 12,2 C 91 % 1002,0 hPa 0,0 l/m 0 min 0 min 0 W/m 3,2 km/h (1 Bft) 100,00 %
29.08.2020 04:06 13,0 C 12,2 C 12,2 C 91 % 1002,0 hPa 0,0 l/m 0 min 0 min 0 W/m 6,4 km/h (2 Bft) 100,00 %
29.08.2020 04:08 13,0 C 12,2 C 12,2 C 91 % 1002,0 hPa 0,0 l/m 0 min 0 min 0 W/m 0,0 km/h (0 Bft) 100,00 %
29.08.2020 04:10 13,0 C 12,2 C 12,2 C 91 % 1002,0 hPa 0,0 l/m 0 min 0 min 0 W/m 0,0 km/h (0 Bft) 100,00 %
29.08.2020 04:12 13,0 C 12,2 C 12,2 C 91 % 1002,0 hPa 0,0 l/m 0 min 0 min 0 W/m 0,0 km/h (0 Bft) 100,00 %
29.08.2020 04:14 12,9 C 12,2 C 12,2 C 91 % 1002,0 hPa 0,0 l/m 0 min 0 min 0 W/m 0,0 km/h (0 Bft) 100,00 %
29.08.2020 04:16 12,9 C 12,2 C 12,2 C 91 % 1002,0 hPa 0,0 l/m 0 min 0 min 0 W/m 0,0 km/h (0 Bft) 100,00 %
29.08.2020 04:18 12,9 C 12,2 C 12,2 C 91 % 1002,0 hPa 0,0 l/m 0 min 0 min 0 W/m 6,4 km/h (2 Bft) 100,00 %
29.08.2020 04:20 12,9 C 12,2 C 12,2 C 91 % 1002,1 hPa 0,0 l/m 0 min 0 min 0 W/m 0,0 km/h (0 Bft) 100,00 %
29.08.2020 04:22 12,9 C 12,2 C 12,2 C 91 % 1002,0 hPa 0,0 l/m 0 min 0 min 0 W/m 3,2 km/h (1 Bft) 100,00 %
29.08.2020 04:24 12,9 C 12,2 C 12,2 C 91 % 1002,0 hPa 0,0 l/m 0 min 0 min 0 W/m 0,0 km/h (0 Bft) 100,00 %
29.08.2020 04:26 12,9 C 12,2 C 12,2 C 91 % 1002,0 hPa 0,0 l/m 0 min 0 min 0 W/m 0,0 km/h (0 Bft) 100,00 %
29.08.2020 04:29 12,9 C 12,2 C 11,7 C 91 % 1002,1 hPa 0,0 l/m 0 min 0 min 0 W/m 3,2 km/h (1 Bft) 100,00 %
29.08.2020 04:30 12,9 C 12,2 C 11,7 C 91 % 1002,1 hPa 0,0 l/m 0 min 0 min 0 W/m 0,0 km/h (0 Bft) 95,83 %
29.08.2020 04:34 12,9 C 12,2 C 11,7 C 91 % 1002,1 hPa 0,0 l/m 0 min 0 min 0 W/m 6,4 km/h (2 Bft) 100,00 %
29.08.2020 04:36 12,9 C 11,7 C 11,7 C 91 % 1002,1 hPa 0,0 l/m 0 min 0 min 0 W/m 3,2 km/h (1 Bft) 100,00 %
29.08.2020 04:38 12,9 C 11,7 C 11,7 C 91 % 1002,1 hPa 0,0 l/m 0 min 0 min 0 W/m 0,0 km/h (0 Bft) 100,00 %
29.08.2020 04:40 12,9 C 11,7 C 11,7 C 91 % 1002,1 hPa 0,0 l/m 0 min 0 min 0 W/m 6,4 km/h (2 Bft) 97,87 %
29.08.2020 04:42 12,9 C 11,7 C 11,7 C 91 % 1002,2 hPa 0,0 l/m 0 min 0 min 0 W/m 0,0 km/h (0 Bft) 97,87 %
29.08.2020 04:44 12,9 C 11,7 C 11,7 C 91 % 1002,1 hPa 0,0 l/m 0 min 0 min 0 W/m 0,0 km/h (0 Bft) 100,00 %
29.08.2020 04:46 12,9 C 11,7 C 11,7 C 91 % 1002,1 hPa 0,0 l/m 0 min 0 min 0 W/m 0,0 km/h (0 Bft) 100,00 %
29.08.2020 04:48 12,8 C 11,7 C 11,7 C 91 % 1002,1 hPa 0,0 l/m 0 min 0 min 0 W/m 0,0 km/h (0 Bft) 95,92 %
29.08.2020 04:50 12,8 C 11,7 C 11,7 C 91 % 1002,1 hPa 0,0 l/m 0 min 0 min 0 W/m 0,0 km/h (0 Bft) 97,92 %
29.08.2020 04:52 12,8 C 11,7 C 11,7 C 91 % 1002,2 hPa 0,0 l/m 0 min 0 min 0 W/m 0,0 km/h (0 Bft) 97,56 %
29.08.2020 04:54 12,8 C 11,7 C 11,7 C 91 % 1002,1 hPa 0,0 l/m 0 min 0 min 0 W/m 0,0 km/h (0 Bft) 78,72 %
29.08.2020 04:56 12,8 C 12,2 C 11,7 C 91 % 1002,1 hPa 0,0 l/m 0 min 0 min 0 W/m 0,0 km/h (0 Bft) 70,73 %
29.08.2020 04:58 12,8 C 12,2 C 11,7 C 91 % 1002,1 hPa 0,0 l/m 0 min 0 min 0 W/m 0,0 km/h (0 Bft) 97,87 %
29.08.2020 05:00 12,8 C 12,2 C 12,2 C 91 % 1002,1 hPa 0,0 l/m 0 min 0 min 0 W/m 0,0 km/h (0 Bft) 97,96 %
29.08.2020 05:02 12,8 C 12,2 C 12,2 C 91 % 1002,2 hPa 0,0 l/m 0 min 0 min 0 W/m 0,0 km/h (0 Bft) 97,87 %
29.08.2020 05:04 12,8 C 12,2 C 12,2 C 91 % 1002,2 hPa 0,0 l/m 0 min 0 min 0 W/m 0,0 km/h (0 Bft) 97,56 %
29.08.2020 05:06 12,8 C 12,2 C 12,2 C 91 % 1002,2 hPa 0,0 l/m 0 min 0 min 0 W/m 0,0 km/h (0 Bft) 98,00 %
29.08.2020 05:08 12,8 C 12,2 C 12,2 C 91 % 1002,2 hPa 0,0 l/m 0 min 0 min 0 W/m 0,0 km/h (0 Bft) 97,87 %
29.08.2020 05:10 12,8 C 11,7 C 12,2 C 91 % 1002,2 hPa 0,0 l/m 0 min 0 min 0 W/m 0,0 km/h (0 Bft) 97,87 %
29.08.2020 05:12 12,8 C 11,7 C 11,7 C 92 % 1002,2 hPa 0,0 l/m 0 min 0 min 0 W/m 0,0 km/h (0 Bft) 97,87 %
29.08.2020 05:14 12,8 C 11,7 C 11,7 C 91 % 1002,2 hPa 0,0 l/m 0 min 0 min 0 W/m 0,0 km/h (0 Bft) 97,96 %
29.08.2020 05:16 12,8 C 12,2 C 11,7 C 92 % 1002,2 hPa 0,0 l/m 0 min 0 min 0 W/m 0,0 km/h (0 Bft) 97,87 %
29.08.2020 05:18 12,8 C 11,7 C 11,7 C 92 % 1002,2 hPa 0,0 l/m 0 min 0 min 0 W/m 0,0 km/h (0 Bft) 97,87 %
29.08.2020 05:20 12,8 C 12,2 C 11,7 C 92 % 1002,2 hPa 0,0 l/m 0 min 0 min 0 W/m 0,0 km/h (0 Bft) 97,87 %
29.08.2020 05:22 12,8 C 11,7 C 11,7 C 92 % 1002,2 hPa 0,0 l/m 0 min 0 min 0 W/m 0,0 km/h (0 Bft) 97,14 %
29.08.2020 05:24 12,8 C 11,7 C 11,7 C 92 % 1002,1 hPa 0,0 l/m 0 min 0 min 0 W/m 0,0 km/h (0 Bft) 97,87 %
29.08.2020 05:26 12,8 C 11,7 C 12,2 C 92 % 1002,2 hPa 0,0 l/m 0 min 0 min 0 W/m 12,9 km/h (3 Bft) 95,74 %
29.08.2020 05:28 12,8 C 12,2 C 12,2 C 92 % 1002,2 hPa 0,0 l/m 0 min 0 min 0 W/m 6,4 km/h (2 Bft) 96,36 %
29.08.2020 05:30 12,8 C 12,2 C 12,2 C 92 % 1002,3 hPa 0,0 l/m 0 min 0 min 0 W/m 3,2 km/h (1 Bft) 98,00 %
29.08.2020 05:32 12,8 C 12,2 C 12,2 C 92 % 1002,3 hPa 0,0 l/m 0 min 0 min 0 W/m 0,0 km/h (0 Bft) 100,00 %
29.08.2020 05:34 12,8 C 12,2 C 12,2 C 92 % 1002,3 hPa 0,0 l/m 0 min 0 min 0 W/m 0,0 km/h (0 Bft) 95,83 %
29.08.2020 05:36 12,9 C 12,2 C 12,2 C 92 % 1002,3 hPa 0,0 l/m 0 min 0 min 0 W/m 0,0 km/h (0 Bft) 97,87 %
29.08.2020 05:38 12,9 C 12,2 C 12,2 C 92 % 1002,3 hPa 0,0 l/m 0 min 0 min 0 W/m 0,0 km/h (0 Bft) 97,14 %
29.08.2020 05:40 12,9 C 12,2 C 12,2 C 92 % 1002,4 hPa 0,0 l/m 0 min 0 min 0 W/m 0,0 km/h (0 Bft) 97,92 %
29.08.2020 05:42 12,9 C 12,2 C 12,2 C 92 % 1002,4 hPa 0,0 l/m 0 min 0 min 0 W/m 0,0 km/h (0 Bft) 98,11 %
29.08.2020 05:44 12,9 C 12,2 C 12,2 C 92 % 1002,4 hPa 0,0 l/m 0 min 0 min 0 W/m 3,2 km/h (1 Bft) 98,00 %
29.08.2020 05:46 12,9 C 12,2 C 12,2 C 92 % 1002,3 hPa 0,0 l/m 0 min 0 min 0 W/m 0,0 km/h (0 Bft) 95,74 %
29.08.2020 05:48 12,9 C 12,2 C 12,2 C 92 % 1002,3 hPa 0,0 l/m 0 min 0 min 0 W/m 0,0 km/h (0 Bft) 97,96 %
29.08.2020 05:50 12,9 C 12,2 C 12,2 C 92 % 1002,3 hPa 0,0 l/m 0 min 0 min 0 W/m 0,0 km/h (0 Bft) 97,87 %
29.08.2020 05:52 12,9 C 12,2 C 12,2 C 92 % 1002,3 hPa 0,0 l/m 0 min 0 min 0 W/m 6,4 km/h (2 Bft) 97,14 %
29.08.2020 05:54 12,9 C 12,2 C 12,2 C 92 % 1002,3 hPa 0,0 l/m 0 min 0 min 0 W/m 6,4 km/h (2 Bft) 97,87 %
29.08.2020 05:56 12,9 C 12,2 C 12,2 C 92 % 1002,4 hPa 0,0 l/m 0 min 0 min 0 W/m 0,0 km/h (0 Bft) 97,83 %
29.08.2020 05:58 12,9 C 12,2 C 12,2 C 92 % 1002,4 hPa 0,0 l/m 0 min 0 min 0 W/m 0,0 km/h (0 Bft) 98,15 %
29.08.2020 06:00 12,9 C 12,2 C 12,2 C 92 % 1002,3 hPa 0,0 l/m 0 min 0 min 0 W/m 0,0 km/h (0 Bft) 97,83 %
29.08.2020 06:02 12,9 C 12,2 C 12,2 C 92 % 1002,3 hPa 0,0 l/m 0 min 0 min 0 W/m 3,2 km/h (1 Bft) 96,00 %
29.08.2020 06:04 12,9 C 12,2 C 12,2 C 92 % 1002,3 hPa 0,0 l/m 0 min 0 min 0 W/m 3,2 km/h (1 Bft) 95,92 %
29.08.2020 06:08 12,9 C 12,2 C 12,2 C 92 % 1002,2 hPa 0,0 l/m 0 min 0 min 0 W/m 12,9 km/h (3 Bft) 96,34 %
29.08.2020 06:10 12,9 C 12,2 C 12,2 C 92 % 1002,3 hPa 0,0 l/m 0 min 0 min 0 W/m 3,2 km/h (1 Bft) 98,15 %
29.08.2020 06:12 12,9 C 12,2 C 12,2 C 92 % 1002,3 hPa 0,0 l/m 0 min 0 min 0 W/m 0,0 km/h (0 Bft) 97,96 %
29.08.2020 06:14 12,9 C 12,2 C 12,2 C 92 % 1002,2 hPa 0,0 l/m 0 min 0 min 0 W/m 0,0 km/h (0 Bft) 97,87 %
29.08.2020 06:16 12,9 C 12,2 C 12,2 C 92 % 1002,3 hPa 0,0 l/m 0 min 0 min 0 W/m 0,0 km/h (0 Bft) 98,00 %
29.08.2020 06:18 12,9 C 12,2 C 12,2 C 92 % 1002,4 hPa 0,0 l/m 0 min 0 min 0 W/m 0,0 km/h (0 Bft) 93,62 %
29.08.2020 06:20 12,9 C 12,2 C 12,2 C 92 % 1002,4 hPa 0,0 l/m 0 min 0 min 0 W/m 0,0 km/h (0 Bft) 97,14 %
29.08.2020 06:22 12,9 C 12,2 C 12,2 C 92 % 1002,4 hPa 0,0 l/m 0 min 0 min 0 W/m 0,0 km/h (0 Bft) 93,62 %
29.08.2020 06:24 12,9 C 12,2 C 12,2 C 92 % 1002,4 hPa 0,0 l/m 0 min 0 min 0 W/m 0,0 km/h (0 Bft) 97,92 %
29.08.2020 06:26 12,9 C 12,2 C 12,2 C 92 % 1002,4 hPa 0,0 l/m 0 min 0 min 0 W/m 6,4 km/h (2 Bft) 98,15 %
29.08.2020 06:28 12,9 C 12,2 C 12,2 C 92 % 1002,4 hPa 0,0 l/m 0 min 0 min 0 W/m 0,0 km/h (0 Bft) 97,87 %
29.08.2020 06:30 12,9 C 12,2 C 12,2 C 92 % 1002,4 hPa 0,0 l/m 0 min 0 min 0 W/m 0,0 km/h (0 Bft) 98,00 %
29.08.2020 06:32 12,9 C 12,2 C 12,2 C 92 % 1002,4 hPa 0,0 l/m 0 min 0 min 0 W/m 3,2 km/h (1 Bft) 97,83 %
29.08.2020 06:34 12,9 C 12,2 C 12,2 C 92 % 1002,4 hPa 0,0 l/m 0 min 0 min 0 W/m 0,0 km/h (0 Bft) 97,30 %
29.08.2020 06:36 12,9 C 12,2 C 11,7 C 92 % 1002,4 hPa 0,0 l/m 0 min 0 min 0 W/m 0,0 km/h (0 Bft) 97,87 %
29.08.2020 06:38 12,9 C 12,2 C 11,7 C 92 % 1002,5 hPa 0,0 l/m 0 min 0 min 0 W/m 0,0 km/h (0 Bft) 97,87 %
29.08.2020 06:40 12,9 C 12,2 C 11,7 C 92 % 1002,5 hPa 0,0 l/m 0 min 0 min 0 W/m 0,0 km/h (0 Bft) 97,92 %
29.08.2020 06:42 12,9 C 12,2 C 11,7 C 92 % 1002,5 hPa 0,0 l/m 0 min 0 min 0 W/m 0,0 km/h (0 Bft) 96,23 %
29.08.2020 06:44 12,9 C 12,2 C 11,7 C 92 % 1002,5 hPa 0,0 l/m 0 min 0 min 0 W/m 0,0 km/h (0 Bft) 97,96 %
29.08.2020 06:46 12,9 C 12,2 C 12,2 C 92 % 1002,5 hPa 0,0 l/m 0 min 0 min 0 W/m 0,0 km/h (0 Bft) 97,44 %
29.08.2020 06:48 12,9 C 12,2 C 12,2 C 92 % 1002,5 hPa 0,0 l/m 0 min 0 min 0 W/m 0,0 km/h (0 Bft) 97,87 %
29.08.2020 06:50 12,9 C 12,2 C 12,2 C 92 % 1002,5 hPa 0,0 l/m 0 min 0 min 0 W/m 0,0 km/h (0 Bft) 95,74 %
29.08.2020 06:52 12,9 C 12,2 C 12,2 C 92 % 1002,6 hPa 0,0 l/m 0 min 0 min 0 W/m 0,0 km/h (0 Bft) 95,65 %
29.08.2020 06:54 12,9 C 12,2 C 12,2 C 92 % 1002,5 hPa 0,0 l/m 0 min 0 min 5 W/m 0,0 km/h (0 Bft) 96,30 %
29.08.2020 06:56 12,9 C 12,2 C 12,2 C 92 % 1002,6 hPa 0,0 l/m 0 min 0 min 5 W/m 0,0 km/h (0 Bft) 97,37 %
29.08.2020 06:58 12,9 C 12,2 C 12,2 C 92 % 1002,5 hPa 0,0 l/m 0 min 0 min 5 W/m 6,4 km/h (2 Bft) 97,96 %
29.08.2020 07:00 12,9 C 12,2 C 12,2 C 92 % 1002,5 hPa 0,0 l/m 0 min 0 min 5 W/m 6,4 km/h (2 Bft) 97,87 %
29.08.2020 07:02 12,9 C 12,2 C 12,2 C 92 % 1002,5 hPa 0,0 l/m 0 min 0 min 6 W/m 6,4 km/h (2 Bft) 97,87 %
29.08.2020 07:04 12,9 C 12,2 C 12,2 C 92 % 1002,6 hPa 0,0 l/m 0 min 0 min 8 W/m 0,0 km/h (0 Bft) 98,11 %
29.08.2020 07:06 12,9 C 12,2 C 12,2 C 92 % 1002,6 hPa 0,0 l/m 0 min 0 min 9 W/m 0,0 km/h (0 Bft) 97,14 %
29.08.2020 07:08 12,9 C 12,2 C 12,2 C 92 % 1002,6 hPa 0,0 l/m 0 min 0 min 9 W/m 0,0 km/h (0 Bft) 95,74 %
29.08.2020 07:10 12,8 C 12,2 C 12,2 C 92 % 1002,6 hPa 0,0 l/m 0 min 0 min 11 W/m 0,0 km/h (0 Bft) 95,74 %
29.08.2020 07:12 12,9 C 12,2 C 12,2 C 92 % 1002,6 hPa 0,0 l/m 0 min 0 min 11 W/m 0,0 km/h (0 Bft) 95,74 %
29.08.2020 07:14 12,9 C 12,2 C 12,2 C 92 % 1002,6 hPa 0,0 l/m 0 min 0 min 12 W/m 3,2 km/h (1 Bft) 96,30 %
29.08.2020 07:16 12,9 C 12,2 C 12,2 C 92 % 1002,6 hPa 0,0 l/m 0 min 0 min 12 W/m 0,0 km/h (0 Bft) 96,00 %
29.08.2020 07:18 12,9 C 12,2 C 12,2 C 92 % 1002,6 hPa 0,0 l/m 0 min 0 min 12 W/m 3,2 km/h (1 Bft) 95,83 %
29.08.2020 07:20 12,9 C 12,2 C 12,2 C 92 % 1002,6 hPa 0,0 l/m 0 min 0 min 12 W/m 0,0 km/h (0 Bft) 97,87 %
29.08.2020 07:22 12,9 C 12,2 C 12,2 C 92 % 1002,7 hPa 0,0 l/m 0 min 0 min 13 W/m 0,0 km/h (0 Bft) 95,74 %
29.08.2020 07:24 12,9 C 12,2 C 12,2 C 92 % 1002,7 hPa 0,0 l/m 0 min 0 min 14 W/m 0,0 km/h (0 Bft) 93,62 %
29.08.2020 07:26 12,9 C 12,2 C 12,2 C 92 % 1002,7 hPa 0,0 l/m 0 min 0 min 16 W/m 0,0 km/h (0 Bft) 97,14 %
29.08.2020 07:28 12,9 C 12,2 C 12,2 C 92 % 1002,8 hPa 0,0 l/m 0 min 0 min 16 W/m 0,0 km/h (0 Bft) 97,87 %
29.08.2020 07:30 12,9 C 12,2 C 12,2 C 92 % 1002,8 hPa 0,0 l/m 0 min 0 min 16 W/m 0,0 km/h (0 Bft) 98,15 %
29.08.2020 07:32 12,9 C 12,2 C 12,2 C 92 % 1002,8 hPa 0,0 l/m 0 min 0 min 16 W/m 0,0 km/h (0 Bft) 97,96 %
29.08.2020 07:34 12,9 C 12,2 C 12,2 C 92 % 1002,8 hPa 0,0 l/m 0 min 0 min 18 W/m 0,0 km/h (0 Bft) 95,92 %
29.08.2020 07:36 12,9 C 12,8 C 12,2 C 92 % 1002,9 hPa 0,0 l/m 0 min 0 min 18 W/m 0,0 km/h (0 Bft) 93,62 %
29.08.2020 07:38 12,9 C 12,8 C 12,2 C 92 % 1002,9 hPa 0,0 l/m 0 min 0 min 18 W/m 0,0 km/h (0 Bft) 95,65 %
29.08.2020 07:40 12,9 C 12,8 C 12,2 C 92 % 1002,9 hPa 0,0 l/m 0 min 0 min 18 W/m 0,0 km/h (0 Bft) 97,87 %
29.08.2020 07:42 12,9 C 12,8 C 12,2 C 92 % 1002,9 hPa 0,0 l/m 0 min 0 min 18 W/m 0,0 km/h (0 Bft) 97,87 %
29.08.2020 07:44 12,9 C 12,8 C 12,2 C 92 % 1002,9 hPa 0,0 l/m 0 min 0 min 18 W/m 0,0 km/h (0 Bft) 95,83 %
29.08.2020 07:46 13,0 C 12,8 C 12,2 C 92 % 1002,9 hPa 0,0 l/m 0 min 0 min 19 W/m 0,0 km/h (0 Bft) 97,14 %
29.08.2020 07:48 13,0 C 12,8 C 12,2 C 92 % 1002,9 hPa 0,0 l/m 0 min 0 min 24 W/m 0,0 km/h (0 Bft) 98,11 %
29.08.2020 07:50 13,0 C 12,8 C 12,8 C 92 % 1002,9 hPa 0,0 l/m 0 min 0 min 23 W/m 0,0 km/h (0 Bft) 95,74 %
29.08.2020 07:52 13,0 C 12,8 C 12,8 C 92 % 1002,9 hPa 0,0 l/m 0 min 0 min 25 W/m 0,0 km/h (0 Bft) 98,00 %
29.08.2020 07:54 13,1 C 12,8 C 12,8 C 92 % 1002,9 hPa 0,0 l/m 0 min 0 min 26 W/m 0,0 km/h (0 Bft) 97,87 %
29.08.2020 07:56 13,1 C 12,8 C 12,8 C 92 % 1003,0 hPa 0,0 l/m 0 min 0 min 27 W/m 0,0 km/h (0 Bft) 100,00 %
29.08.2020 07:58 13,1 C 12,8 C 12,8 C 92 % 1002,9 hPa 0,0 l/m 0 min 0 min 32 W/m 0,0 km/h (0 Bft) 97,14 %
29.08.2020 08:00 13,1 C 13,3 C 12,8 C 92 % 1003,0 hPa 0,0 l/m 0 min 0 min 38 W/m 0,0 km/h (0 Bft) 97,87 %
29.08.2020 08:02 13,1 C 13,3 C 12,8 C 92 % 1003,0 hPa 0,0 l/m 0 min 0 min 48 W/m 3,2 km/h (1 Bft) 98,11 %
29.08.2020 08:04 13,1 C 13,3 C 12,8 C 92 % 1003,0 hPa 0,0 l/m 0 min 0 min 51 W/m 3,2 km/h (1 Bft) 98,00 %
29.08.2020 08:06 13,2 C 13,3 C 12,8 C 92 % 1003,0 hPa 0,0 l/m 0 min 0 min 48 W/m 6,4 km/h (2 Bft) 97,96 %
29.08.2020 08:08 13,2 C 13,3 C 12,8 C 92 % 1003,0 hPa 0,0 l/m 0 min 0 min 49 W/m 6,4 km/h (2 Bft) 100,00 %
29.08.2020 08:10 13,2 C 13,9 C 13,3 C 92 % 1003,1 hPa 0,0 l/m 0 min 0 min 52 W/m 3,2 km/h (1 Bft) 100,00 %
29.08.2020 08:12 13,2 C 13,9 C 13,3 C 92 % 1003,0 hPa 0,0 l/m 0 min 0 min 56 W/m 0,0 km/h (0 Bft) 100,00 %
29.08.2020 08:14 13,3 C 13,9 C 13,3 C 92 % 1003,0 hPa 0,0 l/m 0 min 0 min 60 W/m 0,0 km/h (0 Bft) 100,00 %
29.08.2020 08:16 13,3 C 13,9 C 13,3 C 92 % 1003,0 hPa 0,0 l/m 0 min 0 min 64 W/m 19,3 km/h (3 Bft) 98,00 %
29.08.2020 08:18 13,3 C 13,9 C 13,3 C 92 % 1003,0 hPa 0,0 l/m 0 min 0 min 67 W/m 12,9 km/h (3 Bft) 100,00 %
29.08.2020 08:20 13,4 C 13,9 C 13,3 C 92 % 1003,1 hPa 0,0 l/m 0 min 0 min 64 W/m 12,9 km/h (3 Bft) 100,00 %
29.08.2020 08:22 13,4 C 13,9 C 13,3 C 92 % 1003,1 hPa 0,0 l/m 0 min 0 min 61 W/m 3,2 km/h (1 Bft) 95,74 %
29.08.2020 08:24 13,4 C 13,9 C 13,3 C 92 % 1003,1 hPa 0,0 l/m 0 min 0 min 62 W/m 9,7 km/h (2 Bft) 96,23 %
29.08.2020 08:26 13,5 C 13,9 C 13,3 C 92 % 1003,1 hPa 0,0 l/m 0 min 0 min 63 W/m 12,9 km/h (3 Bft) 98,00 %
29.08.2020 08:28 13,6 C 13,9 C 13,3 C 91 % 1003,1 hPa 0,0 l/m 0 min 0 min 63 W/m 12,9 km/h (3 Bft) 97,96 %
29.08.2020 08:30 13,6 C 14,4 C 13,3 C 92 % 1003,1 hPa 0,0 l/m 0 min 0 min 68 W/m 16,1 km/h (3 Bft) 97,87 %
29.08.2020 08:32 13,7 C 14,4 C 13,3 C 91 % 1003,1 hPa 0,0 l/m 0 min 0 min 79 W/m 9,7 km/h (2 Bft) 97,14 %
29.08.2020 08:34 13,7 C 14,4 C 13,9 C 91 % 1003,1 hPa 0,0 l/m 0 min 0 min 93 W/m 0,0 km/h (0 Bft) 98,11 %
29.08.2020 08:36 13,8 C 14,4 C 13,9 C 91 % 1003,1 hPa 0,0 l/m 0 min 0 min 102 W/m 12,9 km/h (3 Bft) 100,00 %
29.08.2020 08:38 13,8 C 14,4 C 13,9 C 91 % 1003,1 hPa 0,0 l/m 0 min 0 min 109 W/m 19,3 km/h (3 Bft) 95,74 %
29.08.2020 08:40 13,9 C 15,0 C 13,9 C 91 % 1003,2 hPa 0,0 l/m 0 min 0 min 117 W/m 16,1 km/h (3 Bft) 95,74 %
29.08.2020 08:42 13,9 C 15,0 C 14,4 C 91 % 1003,2 hPa 0,0 l/m 0 min 0 min 105 W/m 12,9 km/h (3 Bft) 95,65 %
29.08.2020 08:44 14,0 C 15,0 C 14,4 C 91 % 1003,3 hPa 0,0 l/m 0 min 0 min 101 W/m 12,9 km/h (3 Bft) 97,87 %
29.08.2020 08:46 14,1 C 15,0 C 14,4 C 90 % 1003,3 hPa 0,0 l/m 0 min 0 min 86 W/m 16,1 km/h (3 Bft) 97,87 %
29.08.2020 08:48 14,2 C 15,0 C 13,9 C 90 % 1003,3 hPa 0,0 l/m 0 min 0 min 80 W/m 19,3 km/h (3 Bft) 97,96 %
29.08.2020 08:50 14,3 C 14,4 C 13,9 C 90 % 1003,4 hPa 0,0 l/m 0 min 0 min 72 W/m 22,5 km/h (4 Bft) 97,87 %
29.08.2020 08:52 14,3 C 14,4 C 13,9 C 90 % 1003,3 hPa 0,0 l/m 0 min 0 min 67 W/m 22,5 km/h (4 Bft) 95,74 %
29.08.2020 08:54 14,3 C 14,4 C 13,9 C 89 % 1003,4 hPa 0,0 l/m 0 min 0 min 64 W/m 12,9 km/h (3 Bft) 97,83 %
29.08.2020 08:56 14,3 C 14,4 C 13,9 C 89 % 1003,4 hPa 0,0 l/m 0 min 0 min 63 W/m 12,9 km/h (3 Bft) 97,22 %
29.08.2020 08:58 14,3 C 14,4 C 13,9 C 89 % 1003,4 hPa 0,0 l/m 0 min 0 min 69 W/m 16,1 km/h (3 Bft) 97,87 %
29.08.2020 09:00 14,4 C 14,4 C 13,9 C 89 % 1003,4 hPa 0,0 l/m 0 min 0 min 79 W/m 12,9 km/h (3 Bft) 95,74 %
29.08.2020 09:02 14,4 C 14,4 C 13,9 C 89 % 1003,4 hPa 0,0 l/m 0 min 0 min 88 W/m 16,1 km/h (3 Bft) 98,18 %
29.08.2020 09:04 14,5 C 14,4 C 13,9 C 89 % 1003,4 hPa 0,0 l/m 0 min 0 min 90 W/m 9,7 km/h (2 Bft) 100,00 %
29.08.2020 09:06 14,5 C 14,4 C 13,9 C 89 % 1003,4 hPa 0,0 l/m 0 min 0 min 100 W/m 16,1 km/h (3 Bft) 100,00 %
29.08.2020 09:08 14,6 C 14,4 C 13,9 C 89 % 1003,4 hPa 0,0 l/m 0 min 0 min 114 W/m 19,3 km/h (3 Bft) 95,74 %
29.08.2020 09:10 14,6 C 14,4 C 13,9 C 89 % 1003,4 hPa 0,0 l/m 0 min 0 min 125 W/m 22,5 km/h (4 Bft) 100,00 %
29.08.2020 09:12 14,6 C 15,0 C 13,9 C 89 % 1003,4 hPa 0,0 l/m 0 min 0 min 132 W/m 22,5 km/h (4 Bft) 97,87 %
29.08.2020 09:14 14,6 C 15,0 C 14,4 C 88 % 1003,4 hPa 0,0 l/m 0 min 0 min 148 W/m 19,3 km/h (3 Bft) 100,00 %
29.08.2020 09:16 14,7 C 15,6 C 14,4 C 88 % 1003,4 hPa 0,0 l/m 2 min 0 min 213 W/m 25,7 km/h (4 Bft) 100,00 %
29.08.2020 09:18 14,7 C 16,7 C 14,4 C 88 % 1003,4 hPa 0,0 l/m 2 min 0 min 281 W/m 16,1 km/h (3 Bft) 100,00 %
29.08.2020 09:20 14,8 C 17,2 C 15,0 C 88 % 1003,4 hPa 0,0 l/m 2 min 0 min 305 W/m 19,3 km/h (3 Bft) 95,74 %
29.08.2020 09:22 14,8 C 16,7 C 15,0 C 88 % 1003,5 hPa 0,0 l/m 2 min 0 min 433 W/m 19,3 km/h (3 Bft) 100,00 %
29.08.2020 09:24 14,9 C 17,8 C 15,6 C 88 % 1003,4 hPa 0,0 l/m 2 min 0 min 204 W/m 19,3 km/h (3 Bft) 100,00 %
29.08.2020 09:26 15,0 C 18,3 C 16,1 C 88 % 1003,4 hPa 0,0 l/m 2 min 0 min 262 W/m 9,7 km/h (2 Bft) 100,00 %
29.08.2020 09:28 15,1 C 17,2 C 15,6 C 88 % 1003,4 hPa 0,0 l/m 2 min 0 min 222 W/m 22,5 km/h (4 Bft) 100,00 %
29.08.2020 09:30 15,2 C 16,7 C 15,6 C 88 % 1003,4 hPa 0,0 l/m 0 min 0 min 107 W/m 9,7 km/h (2 Bft) 100,00 %
29.08.2020 09:32 15,3 C 17,8 C 16,1 C 87 % 1003,4 hPa 0,0 l/m 0 min 0 min 104 W/m 12,9 km/h (3 Bft) 100,00 %
29.08.2020 09:34 15,4 C 20,0 C 16,1 C 87 % 1003,4 hPa 0,0 l/m 2 min 0 min 422 W/m 3,2 km/h (1 Bft) 100,00 %
29.08.2020 09:36 15,5 C 20,6 C 16,1 C 87 % 1003,5 hPa 0,0 l/m 2 min 0 min 442 W/m 22,5 km/h (4 Bft) 100,00 %
29.08.2020 09:38 15,6 C 21,1 C 16,1 C 87 % 1003,4 hPa 0,0 l/m 2 min 0 min 402 W/m 12,9 km/h (3 Bft) 100,00 %
29.08.2020 09:40 15,8 C 21,7 C 16,1 C 87 % 1003,4 hPa 0,0 l/m 2 min 0 min 445 W/m 6,4 km/h (2 Bft) 100,00 %
29.08.2020 09:42 15,9 C 21,7 C 16,7 C 86 % 1003,5 hPa 0,0 l/m 2 min 0 min 455 W/m 12,9 km/h (3 Bft) 100,00 %
29.08.2020 09:44 16,1 C 21,7 C 18,9 C 86 % 1003,5 hPa 0,0 l/m 2 min 0 min 434 W/m 12,9 km/h (3 Bft) 100,00 %
29.08.2020 09:46 16,2 C 21,1 C 20,0 C 85 % 1003,5 hPa 0,0 l/m 2 min 0 min 355 W/m 6,4 km/h (2 Bft) 95,74 %
29.08.2020 09:48 16,3 C 21,1 C 20,6 C 85 % 1003,5 hPa 0,0 l/m 2 min 0 min 483 W/m 16,1 km/h (3 Bft) 98,11 %
29.08.2020 09:50 16,5 C 21,1 C 21,1 C 85 % 1003,7 hPa 0,0 l/m 2 min 0 min 493 W/m 25,7 km/h (4 Bft) 98,00 %
29.08.2020 09:52 16,7 C 18,9 C 19,4 C 83 % 1003,7 hPa 0,0 l/m 2 min 0 min 412 W/m 41,8 km/h (6 Bft) 97,30 %
29.08.2020 09:54 16,8 C 19,4 C 21,1 C 82 % 1003,7 hPa 0,0 l/m 2 min 0 min 288 W/m 32,2 km/h (5 Bft) 97,92 %
29.08.2020 09:56 16,9 C 20,0 C 22,2 C 81 % 1003,6 hPa 0,0 l/m 2 min 0 min 485 W/m 32,2 km/h (5 Bft) 97,87 %
29.08.2020 09:58 17,0 C 20,6 C 22,8 C 81 % 1003,6 hPa 0,0 l/m 2 min 0 min 506 W/m 25,7 km/h (4 Bft) 98,18 %
29.08.2020 10:00 17,2 C 21,7 C 23,3 C 81 % 1003,6 hPa 0,0 l/m 2 min 0 min 523 W/m 16,1 km/h (3 Bft) 97,37 %
29.08.2020 10:02 17,3 C 22,8 C 23,9 C 81 % 1003,8 hPa 0,0 l/m 2 min 0 min 567 W/m 16,1 km/h (3 Bft) 97,87 %
29.08.2020 10:04 17,4 C 22,8 C 23,9 C 80 % 1003,7 hPa 0,0 l/m 2 min 0 min 587 W/m 16,1 km/h (3 Bft) 97,96 %
29.08.2020 10:06 17,6 C 22,8 C 23,9 C 80 % 1003,8 hPa 0,0 l/m 2 min 0 min 598 W/m 6,4 km/h (2 Bft) 97,96 %
29.08.2020 10:08 17,7 C 21,7 C 22,2 C 79 % 1003,8 hPa 0,0 l/m 2 min 0 min 613 W/m 16,1 km/h (3 Bft) 95,74 %
29.08.2020 10:10 17,8 C 20,6 C 21,1 C 78 % 1003,8 hPa 0,0 l/m 2 min 0 min 613 W/m 19,3 km/h (3 Bft) 97,83 %
29.08.2020 10:12 17,8 C 19,4 C 20,0 C 78 % 1003,9 hPa 0,0 l/m 2 min 0 min 264 W/m 19,3 km/h (3 Bft) 95,35 %
29.08.2020 10:14 17,8 C 19,4 C 18,9 C 78 % 1003,9 hPa 0,0 l/m 2 min 0 min 265 W/m 19,3 km/h (3 Bft) 95,74 %
29.08.2020 10:16 17,8 C 18,9 C 18,3 C 77 % 1003,9 hPa 0,0 l/m 2 min 0 min 362 W/m 25,7 km/h (4 Bft) 95,74 %
29.08.2020 10:18 17,8 C 19,4 C 19,4 C 77 % 1003,9 hPa 0,0 l/m 0 min 0 min 235 W/m 22,5 km/h (4 Bft) 97,96 %
29.08.2020 10:20 17,8 C 20,0 C 20,0 C 77 % 1003,9 hPa 0,0 l/m 2 min 0 min 296 W/m 22,5 km/h (4 Bft) 97,87 %
29.08.2020 10:22 17,8 C 20,0 C 19,4 C 78 % 1004,0 hPa 0,0 l/m 2 min 0 min 353 W/m 16,1 km/h (3 Bft) 93,75 %
29.08.2020 10:24 17,9 C 21,1 C 20,0 C 78 % 1003,9 hPa 0,0 l/m 2 min 0 min 473 W/m 12,9 km/h (3 Bft) 95,74 %
29.08.2020 10:26 17,9 C 21,7 C 21,1 C 78 % 1004,0 hPa 0,0 l/m 2 min 0 min 656 W/m 22,5 km/h (4 Bft) 97,87 %
29.08.2020 10:28 18,0 C 21,7 C 21,7 C 78 % 1004,0 hPa 0,0 l/m 2 min 0 min 684 W/m 12,9 km/h (3 Bft) 97,62 %
29.08.2020 10:30 18,1 C 21,1 C 20,0 C 78 % 1004,1 hPa 0,0 l/m 0 min 0 min 228 W/m 12,9 km/h (3 Bft) 94,00 %
29.08.2020 10:32 18,1 C 20,6 C 19,4 C 78 % 1004,1 hPa 0,0 l/m 0 min 0 min 252 W/m 12,9 km/h (3 Bft) 95,74 %
29.08.2020 10:34 18,2 C 20,6 C 19,4 C 77 % 1004,2 hPa 0,0 l/m 2 min 0 min 308 W/m 16,1 km/h (3 Bft) 97,87 %
29.08.2020 10:36 18,2 C 19,4 C 18,9 C 76 % 1004,2 hPa 0,0 l/m 0 min 0 min 240 W/m 29,0 km/h (5 Bft) 100,00 %
29.08.2020 10:38 18,2 C 18,3 C 17,8 C 76 % 1004,3 hPa 0,0 l/m 0 min 0 min 138 W/m 22,5 km/h (4 Bft) 100,00 %
29.08.2020 10:40 18,2 C 17,8 C 17,8 C 76 % 1004,2 hPa 0,0 l/m 0 min 0 min 152 W/m 9,7 km/h (2 Bft) 95,74 %
29.08.2020 10:42 18,2 C 17,8 C 17,2 C 77 % 1004,2 hPa 0,0 l/m 0 min 0 min 180 W/m 12,9 km/h (3 Bft) 97,87 %
29.08.2020 10:44 18,1 C 17,8 C 17,2 C 77 % 1004,2 hPa 0,0 l/m 0 min 0 min 194 W/m 6,4 km/h (2 Bft) 100,00 %
29.08.2020 10:46 18,1 C 17,8 C 17,2 C 77 % 1004,3 hPa 0,0 l/m 0 min 0 min 204 W/m 9,7 km/h (2 Bft) 97,87 %
29.08.2020 10:48 18,1 C 18,9 C 17,8 C 77 % 1004,3 hPa 0,0 l/m 0 min 0 min 285 W/m 9,7 km/h (2 Bft) 95,74 %
29.08.2020 10:50 18,1 C 18,3 C 17,8 C 77 % 1004,3 hPa 0,0 l/m 0 min 0 min 264 W/m 16,1 km/h (3 Bft) 94,00 %
29.08.2020 10:52 18,1 C 17,8 C 17,2 C 77 % 1004,3 hPa 0,0 l/m 0 min 0 min 137 W/m 25,7 km/h (4 Bft) 93,88 %
29.08.2020 10:54 18,0 C 17,2 C 17,2 C 77 % 1004,3 hPa 0,0 l/m 0 min 0 min 82 W/m 16,1 km/h (3 Bft) 95,65 %
29.08.2020 10:56 17,9 C 17,2 C 16,7 C 77 % 1004,3 hPa 0,0 l/m 0 min 0 min 94 W/m 16,1 km/h (3 Bft) 95,83 %
29.08.2020 10:58 17,9 C 17,2 C 16,7 C 77 % 1004,3 hPa 0,0 l/m 0 min 0 min 128 W/m 12,9 km/h (3 Bft) 93,62 %
29.08.2020 11:00 17,8 C 17,2 C 16,7 C 77 % 1004,3 hPa 0,0 l/m 0 min 0 min 158 W/m 9,7 km/h (2 Bft) 100,00 %
29.08.2020 11:02 17,7 C 17,2 C 16,7 C 77 % 1004,3 hPa 0,0 l/m 0 min 0 min 149 W/m 16,1 km/h (3 Bft) 92,98 %
29.08.2020 11:04 17,7 C 17,2 C 16,7 C 77 % 1004,3 hPa 0,0 l/m 0 min 0 min 136 W/m 19,3 km/h (3 Bft) 95,92 %
29.08.2020 11:06 17,7 C 17,2 C 16,7 C 77 % 1004,3 hPa 0,0 l/m 0 min 0 min 147 W/m 12,9 km/h (3 Bft) 95,74 %
29.08.2020 11:08 17,6 C 17,2 C 16,7 C 77 % 1004,4 hPa 0,0 l/m 0 min 0 min 172 W/m 12,9 km/h (3 Bft) 95,65 %
29.08.2020 11:10 17,6 C 17,8 C 16,7 C 77 % 1004,4 hPa 0,0 l/m 0 min 0 min 235 W/m 6,4 km/h (2 Bft) 93,62 %
29.08.2020 11:12 17,6 C 20,0 C 17,2 C 78 % 1004,4 hPa 0,0 l/m 0 min 0 min 258 W/m 16,1 km/h (3 Bft) 95,74 %
29.08.2020 11:14 17,6 C 21,1 C 17,8 C 78 % 1004,4 hPa 0,0 l/m 0 min 0 min 258 W/m 9,7 km/h (2 Bft) 94,29 %
29.08.2020 11:16 17,7 C 20,6 C 17,8 C 78 % 1004,4 hPa 0,0 l/m 0 min 0 min 257 W/m 9,7 km/h (2 Bft) 94,55 %
29.08.2020 11:18 17,8 C 19,4 C 17,8 C 79 % 1004,4 hPa 0,0 l/m 0 min 0 min 193 W/m 12,9 km/h (3 Bft) 96,00 %
29.08.2020 11:20 17,8 C 19,4 C 17,8 C 78 % 1004,4 hPa 0,0 l/m 0 min 0 min 237 W/m 9,7 km/h (2 Bft) 95,74 %
29.08.2020 11:22 17,9 C 20,0 C 17,8 C 78 % 1004,5 hPa 0,0 l/m 0 min 0 min 308 W/m 12,9 km/h (3 Bft) 95,74 %
29.08.2020 11:24 17,9 C 22,2 C 18,3 C 78 % 1004,4 hPa 0,0 l/m 2 min 0 min 343 W/m 12,9 km/h (3 Bft) 94,29 %
29.08.2020 11:26 18,1 C 22,8 C 18,3 C 78 % 1004,4 hPa 0,0 l/m 2 min 0 min 343 W/m 16,1 km/h (3 Bft) 96,36 %
29.08.2020 11:28 18,2 C 22,8 C 18,9 C 78 % 1004,4 hPa 0,0 l/m 2 min 0 min 343 W/m 22,5 km/h (4 Bft) 94,00 %
29.08.2020 11:30 18,3 C 21,1 C 18,9 C 77 % 1004,4 hPa 0,0 l/m 2 min 0 min 338 W/m 16,1 km/h (3 Bft) 95,74 %
29.08.2020 11:32 18,3 C 20,0 C 18,3 C 76 % 1004,4 hPa 0,0 l/m 0 min 0 min 258 W/m 12,9 km/h (3 Bft) 100,00 %
29.08.2020 11:34 18,4 C 19,4 C 18,3 C 77 % 1004,4 hPa 0,0 l/m 0 min 0 min 196 W/m 9,7 km/h (2 Bft) 97,87 %
29.08.2020 11:36 18,4 C 18,9 C 18,3 C 76 % 1004,4 hPa 0,0 l/m 0 min 0 min 188 W/m 16,1 km/h (3 Bft) 94,55 %
29.08.2020 11:38 18,4 C 18,3 C 17,8 C 75 % 1004,4 hPa 0,0 l/m 0 min 0 min 206 W/m 19,3 km/h (3 Bft) 97,96 %
29.08.2020 11:40 18,4 C 18,3 C 17,8 C 75 % 1004,4 hPa 0,0 l/m 0 min 0 min 254 W/m 12,9 km/h (3 Bft) 97,87 %
29.08.2020 11:42 18,4 C 18,9 C 17,8 C 75 % 1004,3 hPa 0,0 l/m 2 min 0 min 330 W/m 16,1 km/h (3 Bft) 97,92 %
29.08.2020 11:44 18,4 C 20,0 C 17,8 C 75 % 1004,4 hPa 0,0 l/m 2 min 0 min 364 W/m 16,1 km/h (3 Bft) 94,29 %
29.08.2020 11:46 18,5 C 21,7 C 18,3 C 76 % 1004,4 hPa 0,0 l/m 2 min 0 min 505 W/m 12,9 km/h (3 Bft) 98,18 %
29.08.2020 11:48 18,6 C 24,4 C 18,9 C 76 % 1004,4 hPa 0,0 l/m 2 min 0 min 776 W/m 12,9 km/h (3 Bft) 97,96 %
29.08.2020 11:50 18,8 C 26,1 C 19,4 C 77 % 1004,4 hPa 0,0 l/m 2 min 0 min 873 W/m 12,9 km/h (3 Bft) 97,96 %
29.08.2020 11:52 18,9 C 25,0 C 19,4 C 75 % 1004,4 hPa 0,0 l/m 2 min 0 min 891 W/m 19,3 km/h (3 Bft) 97,14 %
29.08.2020 11:54 19,1 C 24,4 C 18,9 C 74 % 1004,5 hPa 0,0 l/m 2 min 0 min 878 W/m 19,3 km/h (3 Bft) 98,15 %
29.08.2020 11:56 19,2 C 22,8 C 18,9 C 73 % 1004,5 hPa 0,0 l/m 2 min 0 min 344 W/m 16,1 km/h (3 Bft) 95,74 %
29.08.2020 11:58 19,3 C 24,4 C 18,9 C 73 % 1004,5 hPa 0,0 l/m 2 min 0 min 479 W/m 16,1 km/h (3 Bft) 98,00 %
29.08.2020 12:00 19,4 C 25,6 C 18,9 C 73 % 1004,5 hPa 0,0 l/m 2 min 0 min 828 W/m 16,1 km/h (3 Bft) 97,92 %
29.08.2020 12:02 19,4 C 25,6 C 18,9 C 72 % 1004,4 hPa 0,0 l/m 2 min 0 min 854 W/m 16,1 km/h (3 Bft) 97,14 %
29.08.2020 12:04 19,6 C 25,0 C 18,9 C 72 % 1004,4 hPa 0,0 l/m 2 min 0 min 929 W/m 25,7 km/h (4 Bft) 100,00 %
29.08.2020 12:08 19,7 C 23,9 C 19,4 C 71 % 1004,4 hPa 0,0 l/m 4 min 0 min 636 W/m 25,7 km/h (4 Bft) 100,00 %
29.08.2020 12:10 19,9 C 25,0 C 19,4 C 72 % 1004,4 hPa 0,0 l/m 2 min 0 min 427 W/m 12,9 km/h (3 Bft) 100,00 %
29.08.2020 12:12 20,0 C 25,6 C 20,0 C 72 % 1004,4 hPa 0,0 l/m 2 min 0 min 427 W/m 12,9 km/h (3 Bft) 100,00 %
29.08.2020 12:14 20,1 C 26,1 C 20,0 C 71 % 1004,4 hPa 0,0 l/m 2 min 0 min 921 W/m 22,5 km/h (4 Bft) 100,00 %
29.08.2020 12:16 20,3 C 27,2 C 20,6 C 71 % 1004,4 hPa 0,0 l/m 2 min 0 min 710 W/m 16,1 km/h (3 Bft) 100,00 %
29.08.2020 12:18 20,4 C 25,0 C 20,6 C 69 % 1004,4 hPa 0,0 l/m 2 min 0 min 972 W/m 29,0 km/h (5 Bft) 100,00 %
29.08.2020 12:20 20,6 C 22,8 C 20,0 C 68 % 1004,5 hPa 0,0 l/m 2 min 0 min 958 W/m 22,5 km/h (4 Bft) 100,00 %
29.08.2020 12:22 20,6 C 21,7 C 19,4 C 67 % 1004,4 hPa 0,0 l/m 0 min 0 min 315 W/m 19,3 km/h (3 Bft) 100,00 %
29.08.2020 12:24 20,6 C 23,3 C 19,4 C 67 % 1004,4 hPa 0,0 l/m 2 min 0 min 385 W/m 16,1 km/h (3 Bft) 100,00 %
29.08.2020 12:26 20,7 C 24,4 C 20,0 C 67 % 1004,4 hPa 0,0 l/m 2 min 0 min 559 W/m 16,1 km/h (3 Bft) 100,00 %
29.08.2020 12:28 20,7 C 26,1 C 20,0 C 68 % 1004,4 hPa 0,0 l/m 2 min 0 min 943 W/m 12,9 km/h (3 Bft) 97,87 %
29.08.2020 12:30 20,8 C 23,9 C 20,0 C 67 % 1004,4 hPa 0,0 l/m 2 min 0 min 469 W/m 9,7 km/h (2 Bft) 100,00 %
29.08.2020 12:32 20,8 C 23,3 C 19,4 C 67 % 1004,4 hPa 0,0 l/m 0 min 0 min 210 W/m 16,1 km/h (3 Bft) 100,00 %
29.08.2020 12:34 20,8 C 23,9 C 19,4 C 68 % 1004,5 hPa 0,0 l/m 2 min 0 min 933 W/m 9,7 km/h (2 Bft) 100,00 %
29.08.2020 12:36 20,8 C 22,2 C 19,4 C 68 % 1004,4 hPa 0,0 l/m 0 min 0 min 219 W/m 9,7 km/h (2 Bft) 100,00 %
29.08.2020 12:38 20,8 C 20,6 C 19,4 C 68 % 1004,5 hPa 0,0 l/m 0 min 0 min 190 W/m 12,9 km/h (3 Bft) 100,00 %
29.08.2020 12:40 20,7 C 20,6 C 18,9 C 68 % 1004,5 hPa 0,0 l/m 0 min 0 min 217 W/m 12,9 km/h (3 Bft) 100,00 %
29.08.2020 12:42 20,6 C 20,6 C 18,9 C 68 % 1004,4 hPa 0,0 l/m 0 min 0 min 252 W/m 9,7 km/h (2 Bft) 100,00 %
29.08.2020 12:44 20,5 C 20,0 C 18,9 C 68 % 1004,4 hPa 0,0 l/m 0 min 0 min 217 W/m 16,1 km/h (3 Bft) 95,74 %
29.08.2020 12:46 20,4 C 19,4 C 18,3 C 68 % 1004,4 hPa 0,0 l/m 0 min 0 min 208 W/m 12,9 km/h (3 Bft) 97,96 %
29.08.2020 12:48 20,3 C 21,7 C 18,9 C 68 % 1004,4 hPa 0,0 l/m 0 min 0 min 209 W/m 6,4 km/h (2 Bft) 97,87 %
29.08.2020 12:50 20,2 C 24,4 C 19,4 C 69 % 1004,4 hPa 0,0 l/m 0 min 0 min 209 W/m 6,4 km/h (2 Bft) 100,00 %
29.08.2020 12:52 20,3 C 23,9 C 19,4 C 70 % 1004,4 hPa 0,0 l/m 0 min 0 min 209 W/m 12,9 km/h (3 Bft) 96,23 %
29.08.2020 12:54 20,3 C 22,8 C 19,4 C 69 % 1004,4 hPa 0,0 l/m 0 min 0 min 183 W/m 9,7 km/h (2 Bft) 98,00 %
29.08.2020 12:56 20,3 C 21,7 C 19,4 C 69 % 1004,4 hPa 0,0 l/m 0 min 0 min 204 W/m 9,7 km/h (2 Bft) 97,30 %
29.08.2020 12:58 20,3 C 22,8 C 19,4 C 69 % 1004,5 hPa 0,0 l/m 2 min 0 min 465 W/m 12,9 km/h (3 Bft) 97,87 %
29.08.2020 13:00 20,4 C 22,2 C 19,4 C 67 % 1004,4 hPa 0,0 l/m 2 min 0 min 545 W/m 16,1 km/h (3 Bft) 97,87 %
29.08.2020 13:02 20,3 C 21,7 C 19,4 C 67 % 1004,4 hPa 0,0 l/m 0 min 0 min 286 W/m 19,3 km/h (3 Bft) 98,18 %
29.08.2020 13:04 20,3 C 23,3 C 19,4 C 66 % 1004,4 hPa 0,0 l/m 2 min 0 min 747 W/m 25,7 km/h (4 Bft) 97,87 %
29.08.2020 13:06 20,4 C 22,2 C 19,4 C 68 % 1004,4 hPa 0,0 l/m 2 min 0 min 801 W/m 16,1 km/h (3 Bft) 98,00 %
29.08.2020 13:08 20,3 C 20,6 C 19,4 C 67 % 1004,4 hPa 0,0 l/m 0 min 0 min 165 W/m 12,9 km/h (3 Bft) 97,87 %
29.08.2020 13:10 20,3 C 20,6 C 18,9 C 66 % 1004,5 hPa 0,0 l/m 0 min 0 min 173 W/m 12,9 km/h (3 Bft) 97,83 %
29.08.2020 13:12 20,3 C 20,0 C 18,9 C 69 % 1004,5 hPa 0,0 l/m 0 min 0 min 172 W/m 9,7 km/h (2 Bft) 97,22 %
29.08.2020 13:14 20,2 C 20,0 C 18,9 C 69 % 1004,5 hPa 0,0 l/m 0 min 0 min 190 W/m 9,7 km/h (2 Bft) 97,92 %
29.08.2020 13:16 20,2 C 20,0 C 18,9 C 69 % 1004,5 hPa 0,0 l/m 0 min 0 min 170 W/m 6,4 km/h (2 Bft) 94,44 %
29.08.2020 13:18 20,2 C 19,4 C 18,9 C 68 % 1004,5 hPa 0,0 l/m 0 min 0 min 170 W/m 12,9 km/h (3 Bft) 95,74 %
29.08.2020 13:20 20,1 C 18,9 C 18,3 C 68 % 1004,5 hPa 0,0 l/m 0 min 0 min 163 W/m 12,9 km/h (3 Bft) 96,00 %
29.08.2020 13:22 20,0 C 18,9 C 18,3 C 67 % 1004,5 hPa 0,0 l/m 0 min 0 min 175 W/m 16,1 km/h (3 Bft) 94,44 %
29.08.2020 13:24 19,9 C 18,9 C 18,3 C 66 % 1004,5 hPa 0,0 l/m 0 min 0 min 183 W/m 19,3 km/h (3 Bft) 95,74 %
29.08.2020 13:26 19,8 C 19,4 C 18,3 C 66 % 1004,4 hPa 0,0 l/m 0 min 0 min 197 W/m 12,9 km/h (3 Bft) 96,30 %
29.08.2020 13:28 19,8 C 22,8 C 18,9 C 67 % 1004,4 hPa 0,0 l/m 2 min 0 min 516 W/m 12,9 km/h (3 Bft) 96,00 %
29.08.2020 13:30 19,8 C 25,0 C 19,4 C 67 % 1004,4 hPa 0,0 l/m 2 min 0 min 970 W/m 16,1 km/h (3 Bft) 95,74 %
29.08.2020 13:32 19,9 C 24,4 C 19,4 C 68 % 1004,4 hPa 0,0 l/m 2 min 0 min 942 W/m 16,1 km/h (3 Bft) 94,44 %
29.08.2020 13:34 20,1 C 26,7 C 20,0 C 67 % 1004,4 hPa 0,0 l/m 2 min 0 min 943 W/m 12,9 km/h (3 Bft) 95,83 %
29.08.2020 13:36 20,2 C 23,9 C 19,4 C 66 % 1004,4 hPa 0,0 l/m 2 min 0 min 655 W/m 16,1 km/h (3 Bft) 94,34 %
29.08.2020 13:38 20,3 C 22,2 C 19,4 C 65 % 1004,4 hPa 0,0 l/m 0 min 0 min 155 W/m 16,1 km/h (3 Bft) 97,87 %
29.08.2020 13:40 20,3 C 22,2 C 19,4 C 65 % 1004,5 hPa 0,0 l/m 0 min 0 min 191 W/m 25,7 km/h (4 Bft) 97,87 %
29.08.2020 13:42 20,3 C 23,3 C 19,4 C 64 % 1004,5 hPa 0,0 l/m 2 min 0 min 886 W/m 35,4 km/h (5 Bft) 98,00 %
29.08.2020 13:44 20,4 C 23,3 C 19,4 C 64 % 1004,5 hPa 0,0 l/m 2 min 0 min 1005 W/m 22,5 km/h (4 Bft) 97,30 %
29.08.2020 13:46 20,4 C 24,4 C 20,0 C 64 % 1004,5 hPa 0,0 l/m 2 min 0 min 957 W/m 22,5 km/h (4 Bft) 97,87 %
29.08.2020 13:48 20,6 C 25,6 C 20,0 C 65 % 1004,5 hPa 0,0 l/m 2 min 0 min 919 W/m 32,2 km/h (5 Bft) 97,87 %
29.08.2020 13:50 20,7 C 25,6 C 20,0 C 65 % 1004,5 hPa 0,0 l/m 2 min 0 min 953 W/m 25,7 km/h (4 Bft) 96,23 %
29.08.2020 13:52 20,8 C 26,1 C 20,6 C 65 % 1004,6 hPa 0,0 l/m 2 min 0 min 975 W/m 16,1 km/h (3 Bft) 96,00 %
29.08.2020 13:54 21,1 C 27,2 C 21,1 C 66 % 1004,6 hPa 0,0 l/m 2 min 0 min 975 W/m 12,9 km/h (3 Bft) 95,74 %
29.08.2020 13:56 21,2 C 26,7 C 21,1 C 65 % 1004,5 hPa 0,0 l/m 2 min 0 min 976 W/m 22,5 km/h (4 Bft) 97,30 %
29.08.2020 13:58 21,3 C 26,1 C 21,1 C 65 % 1004,5 hPa 0,0 l/m 2 min 0 min 933 W/m 19,3 km/h (3 Bft) 98,04 %
29.08.2020 14:00 21,5 C 26,1 C 21,7 C 65 % 1004,6 hPa 0,0 l/m 0 min 0 min 335 W/m 12,9 km/h (3 Bft) 100,00 %
29.08.2020 14:02 21,6 C 25,6 C 21,1 C 65 % 1004,5 hPa 0,0 l/m 2 min 0 min 963 W/m 12,9 km/h (3 Bft) 100,00 %
29.08.2020 14:04 21,7 C 24,4 C 21,1 C 64 % 1004,6 hPa 0,0 l/m 2 min 0 min 963 W/m 9,7 km/h (2 Bft) 100,00 %
29.08.2020 14:06 21,7 C 24,4 C 21,7 C 62 % 1004,5 hPa 0,0 l/m 2 min 0 min 810 W/m 12,9 km/h (3 Bft) 100,00 %
29.08.2020 14:08 21,7 C 25,0 C 22,2 C 61 % 1004,6 hPa 0,0 l/m 2 min 0 min 791 W/m 16,1 km/h (3 Bft) 97,87 %
29.08.2020 14:10 21,7 C 25,0 C 21,7 C 62 % 1004,6 hPa 0,0 l/m 2 min 0 min 791 W/m 9,7 km/h (2 Bft) 97,87 %
29.08.2020 14:12 21,8 C 26,1 C 23,3 C 61 % 1004,5 hPa 0,0 l/m 2 min 0 min 876 W/m 16,1 km/h (3 Bft) 100,00 %
29.08.2020 14:14 21,8 C 25,0 C 23,3 C 61 % 1004,6 hPa 0,0 l/m 2 min 0 min 854 W/m 19,3 km/h (3 Bft) 100,00 %
29.08.2020 14:16 21,8 C 25,0 C 22,2 C 60 % 1004,6 hPa 0,0 l/m 0 min 0 min 326 W/m 19,3 km/h (3 Bft) 98,00 %
29.08.2020 14:18 21,8 C 26,1 C 21,7 C 59 % 1004,6 hPa 0,0 l/m 2 min 0 min 759 W/m 19,3 km/h (3 Bft) 100,00 %
29.08.2020 14:20 21,9 C 26,1 C 21,1 C 59 % 1004,6 hPa 0,0 l/m 2 min 0 min 848 W/m 25,7 km/h (4 Bft) 100,00 %
29.08.2020 14:22 21,9 C 26,1 C 21,1 C 58 % 1004,6 hPa 0,0 l/m 2 min 0 min 859 W/m 22,5 km/h (4 Bft) 100,00 %
29.08.2020 14:24 21,9 C 26,1 C 21,1 C 58 % 1004,6 hPa 0,0 l/m 2 min 0 min 871 W/m 16,1 km/h (3 Bft) 100,00 %
29.08.2020 14:26 21,9 C 23,9 C 20,6 C 58 % 1004,8 hPa 0,0 l/m 2 min 0 min 888 W/m 32,2 km/h (5 Bft) 100,00 %
29.08.2020 14:28 21,9 C 23,9 C 20,6 C 58 % 1004,8 hPa 0,0 l/m 2 min 0 min 888 W/m 22,5 km/h (4 Bft) 100,00 %
29.08.2020 14:30 21,8 C 23,3 C 20,6 C 59 % 1004,7 hPa 0,0 l/m 0 min 0 min 197 W/m 19,3 km/h (3 Bft) 100,00 %
29.08.2020 14:32 21,8 C 24,4 C 20,6 C 58 % 1004,7 hPa 0,0 l/m 2 min 0 min 445 W/m 16,1 km/h (3 Bft) 100,00 %
29.08.2020 14:34 21,8 C 23,9 C 20,6 C 59 % 1004,7 hPa 0,0 l/m 2 min 0 min 877 W/m 19,3 km/h (3 Bft) 100,00 %
29.08.2020 14:36 21,8 C 25,0 C 20,6 C 60 % 1004,7 hPa 0,0 l/m 0 min 0 min 299 W/m 25,7 km/h (4 Bft) 100,00 %
29.08.2020 14:38 21,8 C 25,6 C 20,6 C 59 % 1004,8 hPa 0,0 l/m 2 min 0 min 875 W/m 22,5 km/h (4 Bft) 100,00 %
29.08.2020 14:40 21,9 C 26,1 C 21,1 C 59 % 1004,8 hPa 0,0 l/m 2 min 0 min 888 W/m 16,1 km/h (3 Bft) 100,00 %
29.08.2020 14:42 21,9 C 24,4 C 20,6 C 58 % 1004,8 hPa 0,0 l/m 2 min 0 min 896 W/m 12,9 km/h (3 Bft) 97,67 %
29.08.2020 14:44 21,9 C 23,3 C 20,6 C 59 % 1004,8 hPa 0,0 l/m 2 min 0 min 472 W/m 19,3 km/h (3 Bft) 100,00 %
29.08.2020 14:46 21,8 C 22,8 C 20,6 C 58 % 1004,8 hPa 0,0 l/m 0 min 0 min 236 W/m 22,5 km/h (4 Bft) 100,00 %
29.08.2020 14:48 21,8 C 22,2 C 20,0 C 58 % 1004,8 hPa 0,0 l/m 0 min 0 min 264 W/m 19,3 km/h (3 Bft) 100,00 %
29.08.2020 14:50 21,6 C 21,1 C 20,0 C 58 % 1004,9 hPa 0,0 l/m 0 min 0 min 221 W/m 22,5 km/h (4 Bft) 98,00 %
29.08.2020 14:52 21,6 C 21,1 C 20,0 C 58 % 1004,8 hPa 0,0 l/m 0 min 0 min 213 W/m 19,3 km/h (3 Bft) 100,00 %
29.08.2020 14:54 21,4 C 21,1 C 20,0 C 59 % 1004,9 hPa 0,0 l/m 0 min 0 min 281 W/m 12,9 km/h (3 Bft) 100,00 %
29.08.2020 14:56 21,3 C 21,7 C 20,0 C 59 % 1004,9 hPa 0,0 l/m 0 min 0 min 301 W/m 19,3 km/h (3 Bft) 100,00 %
29.08.2020 14:58 21,3 C 21,7 C 20,0 C 59 % 1004,9 hPa 0,0 l/m 0 min 0 min 306 W/m 12,9 km/h (3 Bft) 100,00 %
29.08.2020 15:00 21,2 C 22,2 C 20,0 C 60 % 1004,8 hPa 0,0 l/m 0 min 0 min 307 W/m 12,9 km/h (3 Bft) 97,87 %
29.08.2020 15:02 21,2 C 24,4 C 20,6 C 60 % 1004,9 hPa 0,0 l/m 0 min 0 min 315 W/m 19,3 km/h (3 Bft) 95,74 %
29.08.2020 15:04 21,2 C 26,1 C 21,1 C 61 % 1004,8 hPa 0,0 l/m 2 min 0 min 933 W/m 12,9 km/h (3 Bft) 98,00 %
29.08.2020 15:06 21,3 C 25,0 C 21,1 C 60 % 1004,8 hPa 0,0 l/m 2 min 0 min 697 W/m 35,4 km/h (5 Bft) 97,92 %
29.08.2020 15:08 21,3 C 26,7 C 21,1 C 60 % 1004,8 hPa 0,0 l/m 2 min 0 min 695 W/m 22,5 km/h (4 Bft) 97,87 %
29.08.2020 15:10 21,4 C 26,7 C 21,7 C 60 % 1004,9 hPa 0,0 l/m 2 min 0 min 908 W/m 22,5 km/h (4 Bft) 97,87 %
29.08.2020 15:12 21,6 C 25,0 C 21,1 C 60 % 1004,8 hPa 0,0 l/m 2 min 0 min 679 W/m 19,3 km/h (3 Bft) 97,83 %
29.08.2020 15:14 21,6 C 23,3 C 20,6 C 59 % 1004,8 hPa 0,0 l/m 2 min 0 min 679 W/m 19,3 km/h (3 Bft) 97,67 %
29.08.2020 15:16 21,6 C 22,8 C 20,6 C 59 % 1004,7 hPa 0,0 l/m 0 min 0 min 301 W/m 9,7 km/h (2 Bft) 96,00 %
29.08.2020 15:18 21,6 C 22,2 C 20,0 C 59 % 1004,8 hPa 0,0 l/m 0 min 0 min 173 W/m 16,1 km/h (3 Bft) 95,83 %
29.08.2020 15:20 21,6 C 21,7 C 20,0 C 59 % 1004,8 hPa 0,0 l/m 0 min 0 min 201 W/m 22,5 km/h (4 Bft) 95,74 %
29.08.2020 15:22 21,6 C 21,7 C 20,0 C 59 % 1004,7 hPa 0,0 l/m 0 min 0 min 281 W/m 19,3 km/h (3 Bft) 95,74 %
29.08.2020 15:24 21,5 C 21,1 C 20,0 C 60 % 1004,7 hPa 0,0 l/m 0 min 0 min 234 W/m 9,7 km/h (2 Bft) 97,62 %
29.08.2020 15:26 21,4 C 21,7 C 20,0 C 60 % 1004,8 hPa 0,0 l/m 0 min 0 min 155 W/m 12,9 km/h (3 Bft) 97,87 %
29.08.2020 15:28 21,4 C 22,8 C 20,0 C 60 % 1004,7 hPa 0,0 l/m 0 min 0 min 195 W/m 9,7 km/h (2 Bft) 98,00 %
29.08.2020 15:30 21,4 C 22,8 C 20,0 C 61 % 1004,7 hPa 0,0 l/m 0 min 0 min 162 W/m 9,7 km/h (2 Bft) 97,92 %
29.08.2020 15:32 21,4 C 24,4 C 20,6 C 62 % 1004,7 hPa 0,0 l/m 2 min 0 min 644 W/m 12,9 km/h (3 Bft) 97,87 %
29.08.2020 15:34 21,5 C 25,6 C 20,6 C 61 % 1004,7 hPa 0,0 l/m 2 min 0 min 803 W/m 25,7 km/h (4 Bft) 95,74 %
29.08.2020 15:36 21,6 C 23,9 C 20,6 C 60 % 1004,8 hPa 0,0 l/m 2 min 0 min 784 W/m 29,0 km/h (5 Bft) 97,62 %
29.08.2020 15:38 21,6 C 24,4 C 20,6 C 60 % 1004,8 hPa 0,0 l/m 2 min 0 min 780 W/m 25,7 km/h (4 Bft) 97,87 %
29.08.2020 15:40 21,6 C 26,1 C 20,6 C 60 % 1004,7 hPa 0,0 l/m 2 min 0 min 788 W/m 12,9 km/h (3 Bft) 97,87 %
29.08.2020 15:42 21,6 C 26,1 C 20,6 C 60 % 1004,7 hPa 0,0 l/m 2 min 0 min 774 W/m 16,1 km/h (3 Bft) 97,96 %
29.08.2020 15:44 21,7 C 25,0 C 20,6 C 61 % 1004,8 hPa 0,0 l/m 2 min 0 min 612 W/m 12,9 km/h (3 Bft) 93,62 %
29.08.2020 15:46 21,7 C 25,6 C 21,1 C 59 % 1004,7 hPa 0,0 l/m 2 min 0 min 703 W/m 19,3 km/h (3 Bft) 93,88 %
29.08.2020 15:48 21,8 C 25,6 C 21,1 C 60 % 1004,8 hPa 0,0 l/m 2 min 0 min 846 W/m 16,1 km/h (3 Bft) 93,48 %
29.08.2020 15:50 21,9 C 23,3 C 20,6 C 59 % 1004,7 hPa 0,0 l/m 2 min 0 min 358 W/m 16,1 km/h (3 Bft) 91,49 %
29.08.2020 15:52 21,9 C 25,0 C 20,6 C 60 % 1004,7 hPa 0,0 l/m 2 min 0 min 489 W/m 12,9 km/h (3 Bft) 93,02 %
29.08.2020 15:54 21,9 C 25,0 C 21,1 C 60 % 1004,7 hPa 0,0 l/m 2 min 0 min 863 W/m 25,7 km/h (4 Bft) 93,48 %
29.08.2020 15:56 22,0 C 25,0 C 21,1 C 59 % 1004,7 hPa 0,0 l/m 2 min 0 min 818 W/m 29,0 km/h (5 Bft) 92,00 %
29.08.2020 15:58 22,1 C 25,6 C 21,1 C 59 % 1004,7 hPa 0,0 l/m 2 min 0 min 789 W/m 22,5 km/h (4 Bft) 93,88 %
29.08.2020 16:00 22,1 C 23,9 C 21,1 C 59 % 1004,7 hPa 0,0 l/m 2 min 0 min 665 W/m 12,9 km/h (3 Bft) 95,12 %
29.08.2020 16:02 22,1 C 22,2 C 20,6 C 58 % 1004,7 hPa 0,0 l/m 0 min 0 min 109 W/m 16,1 km/h (3 Bft) 96,15 %
29.08.2020 16:04 22,1 C 23,3 C 20,6 C 58 % 1004,7 hPa 0,0 l/m 0 min 0 min 131 W/m 32,2 km/h (5 Bft) 96,00 %
29.08.2020 16:06 22,1 C 24,4 C 20,6 C 57 % 1004,6 hPa 0,0 l/m 2 min 0 min 752 W/m 22,5 km/h (4 Bft) 96,00 %
29.08.2020 16:08 22,1 C 25,6 C 21,1 C 58 % 1004,7 hPa 0,0 l/m 2 min 0 min 696 W/m 16,1 km/h (3 Bft) 89,36 %
29.08.2020 16:10 22,1 C 26,1 C 21,1 C 58 % 1004,6 hPa 0,0 l/m 2 min 0 min 686 W/m 16,1 km/h (3 Bft) 97,14 %
29.08.2020 16:12 22,2 C 26,7 C 21,1 C 58 % 1004,7 hPa 0,0 l/m 2 min 0 min 675 W/m 16,1 km/h (3 Bft) 93,88 %
29.08.2020 16:14 22,3 C 26,7 C 21,7 C 59 % 1004,7 hPa 0,0 l/m 2 min 0 min 685 W/m 22,5 km/h (4 Bft) 95,74 %
29.08.2020 16:16 22,4 C 27,2 C 21,7 C 59 % 1004,7 hPa 0,0 l/m 2 min 0 min 690 W/m 12,9 km/h (3 Bft) 93,62 %
29.08.2020 16:18 22,4 C 26,7 C 21,1 C 58 % 1004,8 hPa 0,0 l/m 2 min 0 min 680 W/m 19,3 km/h (3 Bft) 94,44 %
29.08.2020 16:20 22,5 C 26,1 C 21,1 C 57 % 1004,7 hPa 0,0 l/m 2 min 0 min 672 W/m 16,1 km/h (3 Bft) 97,37 %
29.08.2020 16:22 22,6 C 26,1 C 21,1 C 57 % 1004,7 hPa 0,0 l/m 2 min 0 min 667 W/m 16,1 km/h (3 Bft) 93,88 %
29.08.2020 16:24 22,6 C 26,7 C 21,1 C 57 % 1004,7 hPa 0,0 l/m 2 min 0 min 678 W/m 9,7 km/h (2 Bft) 97,83 %
29.08.2020 16:26 22,7 C 26,7 C 21,7 C 57 % 1004,6 hPa 0,0 l/m 2 min 0 min 679 W/m 16,1 km/h (3 Bft) 97,87 %
29.08.2020 16:28 22,7 C 26,1 C 21,7 C 53 % 1004,6 hPa 0,0 l/m 2 min 0 min 668 W/m 19,3 km/h (3 Bft) 98,15 %
29.08.2020 16:30 22,8 C 26,1 C 21,7 C 54 % 1004,6 hPa 0,0 l/m 2 min 0 min 655 W/m 16,1 km/h (3 Bft) 94,74 %
29.08.2020 16:32 22,8 C 25,6 C 21,7 C 54 % 1004,6 hPa 0,0 l/m 2 min 0 min 641 W/m 25,7 km/h (4 Bft) 95,92 %
29.08.2020 16:34 22,8 C 25,6 C 21,7 C 53 % 1004,7 hPa 0,0 l/m 2 min 0 min 639 W/m 19,3 km/h (3 Bft) 97,87 %
29.08.2020 16:36 22,8 C 25,0 C 21,7 C 53 % 1004,7 hPa 0,0 l/m 2 min 0 min 644 W/m 25,7 km/h (4 Bft) 100,00 %
29.08.2020 16:38 22,8 C 25,0 C 21,7 C 53 % 1004,6 hPa 0,0 l/m 2 min 0 min 652 W/m 12,9 km/h (3 Bft) 100,00 %
29.08.2020 16:40 22,8 C 24,4 C 21,1 C 54 % 1004,7 hPa 0,0 l/m 2 min 0 min 652 W/m 12,9 km/h (3 Bft) 97,87 %
29.08.2020 16:42 22,8 C 25,6 C 21,1 C 53 % 1004,8 hPa 0,0 l/m 2 min 0 min 657 W/m 12,9 km/h (3 Bft) 100,00 %
29.08.2020 16:44 22,8 C 26,1 C 21,1 C 53 % 1004,7 hPa 0,0 l/m 2 min 0 min 666 W/m 22,5 km/h (4 Bft) 100,00 %
29.08.2020 16:46 22,9 C 26,7 C 21,7 C 54 % 1004,7 hPa 0,0 l/m 2 min 0 min 652 W/m 3,2 km/h (1 Bft) 97,96 %
29.08.2020 16:48 22,9 C 26,1 C 21,7 C 54 % 1004,8 hPa 0,0 l/m 2 min 0 min 643 W/m 12,9 km/h (3 Bft) 100,00 %
29.08.2020 16:50 23,0 C 26,7 C 21,7 C 54 % 1004,7 hPa 0,0 l/m 2 min 0 min 638 W/m 6,4 km/h (2 Bft) 97,87 %
29.08.2020 16:52 23,1 C 26,1 C 21,7 C 53 % 1004,7 hPa 0,0 l/m 2 min 0 min 619 W/m 12,9 km/h (3 Bft) 100,00 %
29.08.2020 16:54 23,1 C 26,1 C 21,7 C 52 % 1004,7 hPa 0,0 l/m 2 min 0 min 625 W/m 16,1 km/h (3 Bft) 100,00 %
29.08.2020 16:56 23,1 C 24,4 C 21,7 C 52 % 1004,8 hPa 0,0 l/m 2 min 0 min 599 W/m 16,1 km/h (3 Bft) 100,00 %
29.08.2020 16:58 23,1 C 22,8 C 21,1 C 52 % 1004,8 hPa 0,0 l/m 0 min 0 min 83 W/m 12,9 km/h (3 Bft) 100,00 %
29.08.2020 17:00 23,0 C 22,2 C 20,6 C 52 % 1004,8 hPa 0,0 l/m 0 min 0 min 100 W/m 6,4 km/h (2 Bft) 100,00 %
29.08.2020 17:02 23,0 C 24,4 C 21,7 C 54 % 1004,8 hPa 0,0 l/m 2 min 0 min 352 W/m 0,0 km/h (0 Bft) 100,00 %
29.08.2020 17:04 23,0 C 25,0 C 22,2 C 54 % 1004,8 hPa 0,0 l/m 2 min 0 min 613 W/m 16,1 km/h (3 Bft) 100,00 %
29.08.2020 17:06 22,9 C 22,8 C 21,1 C 53 % 1004,8 hPa 0,0 l/m 0 min 0 min 158 W/m 16,1 km/h (3 Bft) 100,00 %
29.08.2020 17:08 22,8 C 22,2 C 21,1 C 55 % 1004,8 hPa 0,0 l/m 0 min 0 min 110 W/m 0,0 km/h (0 Bft) 97,87 %
29.08.2020 17:10 22,7 C 21,1 C 20,6 C 54 % 1004,8 hPa 0,0 l/m 0 min 0 min 94 W/m 0,0 km/h (0 Bft) 100,00 %
29.08.2020 17:12 22,7 C 22,2 C 20,6 C 54 % 1004,8 hPa 0,0 l/m 0 min 0 min 146 W/m 0,0 km/h (0 Bft) 100,00 %
29.08.2020 17:14 22,6 C 24,4 C 21,1 C 55 % 1004,8 hPa 0,0 l/m 2 min 0 min 612 W/m 9,7 km/h (2 Bft) 100,00 %
29.08.2020 17:16 22,6 C 25,6 C 22,2 C 56 % 1004,7 hPa 0,0 l/m 2 min 0 min 627 W/m 12,9 km/h (3 Bft) 100,00 %
29.08.2020 17:18 22,6 C 26,1 C 22,2 C 56 % 1004,8 hPa 0,0 l/m 2 min 0 min 588 W/m 0,0 km/h (0 Bft) 98,00 %
29.08.2020 17:20 22,7 C 26,1 C 21,7 C 58 % 1004,8 hPa 0,0 l/m 2 min 0 min 555 W/m 16,1 km/h (3 Bft) 100,00 %
29.08.2020 17:22 22,7 C 26,1 C 21,7 C 58 % 1004,8 hPa 0,0 l/m 2 min 0 min 546 W/m 0,0 km/h (0 Bft) 100,00 %
29.08.2020 17:24 22,7 C 26,1 C 21,1 C 58 % 1004,8 hPa 0,0 l/m 2 min 0 min 555 W/m 12,9 km/h (3 Bft) 98,15 %
29.08.2020 17:26 22,8 C 26,1 C 21,1 C 58 % 1004,9 hPa 0,0 l/m 2 min 0 min 562 W/m 9,7 km/h (2 Bft) 100,00 %
29.08.2020 17:28 22,9 C 26,1 C 21,1 C 57 % 1004,8 hPa 0,0 l/m 2 min 0 min 562 W/m 9,7 km/h (2 Bft) 97,83 %
29.08.2020 17:30 22,9 C 25,6 C 21,1 C 56 % 1004,8 hPa 0,0 l/m 2 min 0 min 542 W/m 19,3 km/h (3 Bft) 100,00 %
29.08.2020 17:32 22,9 C 26,1 C 21,1 C 56 % 1004,9 hPa 0,0 l/m 2 min 0 min 530 W/m 12,9 km/h (3 Bft) 100,00 %
29.08.2020 17:34 23,0 C 25,0 C 20,6 C 56 % 1004,9 hPa 0,0 l/m 2 min 0 min 461 W/m 16,1 km/h (3 Bft) 100,00 %
29.08.2020 17:36 23,0 C 25,6 C 20,6 C 56 % 1005,0 hPa 0,0 l/m 2 min 0 min 502 W/m 6,4 km/h (2 Bft) 100,00 %
29.08.2020 17:38 23,0 C 25,6 C 20,6 C 57 % 1005,0 hPa 0,0 l/m 2 min 0 min 511 W/m 9,7 km/h (2 Bft) 100,00 %
29.08.2020 17:40 23,0 C 25,0 C 20,6 C 56 % 1005,0 hPa 0,0 l/m 2 min 0 min 507 W/m 16,1 km/h (3 Bft) 100,00 %
29.08.2020 17:42 23,0 C 25,0 C 20,6 C 56 % 1005,0 hPa 0,0 l/m 2 min 0 min 512 W/m 19,3 km/h (3 Bft) 100,00 %
29.08.2020 17:44 23,0 C 25,0 C 20,6 C 55 % 1005,1 hPa 0,0 l/m 2 min 0 min 505 W/m 16,1 km/h (3 Bft) 100,00 %
29.08.2020 17:46 22,9 C 25,0 C 20,6 C 55 % 1005,0 hPa 0,0 l/m 2 min 0 min 470 W/m 6,4 km/h (2 Bft) 100,00 %
29.08.2020 17:48 22,9 C 24,4 C 20,6 C 56 % 1004,9 hPa 0,0 l/m 2 min 0 min 413 W/m 16,1 km/h (3 Bft) 100,00 %
29.08.2020 17:50 22,9 C 24,4 C 20,6 C 56 % 1004,9 hPa 0,0 l/m 2 min 0 min 429 W/m 12,9 km/h (3 Bft) 100,00 %
29.08.2020 17:52 22,9 C 25,0 C 20,6 C 57 % 1005,0 hPa 0,0 l/m 2 min 0 min 511 W/m 16,1 km/h (3 Bft) 100,00 %
29.08.2020 17:54 22,9 C 24,4 C 20,6 C 57 % 1005,0 hPa 0,0 l/m 2 min 0 min 394 W/m 9,7 km/h (2 Bft) 100,00 %
29.08.2020 17:56 22,9 C 24,4 C 20,6 C 56 % 1005,0 hPa 0,0 l/m 2 min 0 min 441 W/m 6,4 km/h (2 Bft) 100,00 %
29.08.2020 17:58 22,9 C 25,6 C 20,6 C 56 % 1005,0 hPa 0,0 l/m 2 min 0 min 497 W/m 0,0 km/h (0 Bft) 100,00 %
29.08.2020 18:00 23,0 C 24,4 C 21,1 C 56 % 1005,0 hPa 0,0 l/m 2 min 0 min 511 W/m 9,7 km/h (2 Bft) 100,00 %
29.08.2020 18:02 23,0 C 25,0 C 21,1 C 57 % 1005,0 hPa 0,0 l/m 2 min 0 min 368 W/m 16,1 km/h (3 Bft) 100,00 %
29.08.2020 18:04 23,0 C 25,0 C 20,6 C 57 % 1005,0 hPa 0,0 l/m 2 min 0 min 500 W/m 12,9 km/h (3 Bft) 97,87 %
29.08.2020 18:08 23,0 C 23,9 C 20,6 C 57 % 1005,0 hPa 0,0 l/m 4 min 0 min 469 W/m 6,4 km/h (2 Bft) 97,85 %
29.08.2020 18:10 23,0 C 23,3 C 20,6 C 57 % 1005,0 hPa 0,0 l/m 0 min 0 min 164 W/m 0,0 km/h (0 Bft) 98,18 %
29.08.2020 18:12 22,9 C 23,3 C 20,6 C 57 % 1005,1 hPa 0,0 l/m 2 min 0 min 262 W/m 9,7 km/h (2 Bft) 100,00 %
29.08.2020 18:14 22,9 C 22,8 C 20,0 C 56 % 1005,1 hPa 0,0 l/m 2 min 0 min 260 W/m 16,1 km/h (3 Bft) 93,75 %
29.08.2020 18:16 22,8 C 22,8 C 20,0 C 56 % 1005,0 hPa 0,0 l/m 2 min 0 min 212 W/m 16,1 km/h (3 Bft) 96,00 %
29.08.2020 18:18 22,8 C 23,3 C 20,0 C 57 % 1005,1 hPa 0,0 l/m 2 min 0 min 420 W/m 0,0 km/h (0 Bft) 97,87 %
29.08.2020 18:20 22,8 C 22,2 C 20,0 C 58 % 1005,1 hPa 0,0 l/m 2 min 0 min 389 W/m 0,0 km/h (0 Bft) 97,87 %
29.08.2020 18:22 22,7 C 21,7 C 20,0 C 57 % 1005,1 hPa 0,0 l/m 2 min 0 min 154 W/m 0,0 km/h (0 Bft) 97,87 %
29.08.2020 18:24 22,6 C 21,1 C 20,0 C 58 % 1005,2 hPa 0,0 l/m 0 min 0 min 131 W/m 0,0 km/h (0 Bft) 95,83 %
29.08.2020 18:26 22,4 C 21,1 C 20,0 C 59 % 1005,2 hPa 0,0 l/m 0 min 0 min 115 W/m 9,7 km/h (2 Bft) 97,62 %
29.08.2020 18:28 22,4 C 20,6 C 19,4 C 59 % 1005,1 hPa 0,0 l/m 0 min 0 min 113 W/m 0,0 km/h (0 Bft) 96,00 %
29.08.2020 18:30 22,3 C 20,6 C 19,4 C 60 % 1005,2 hPa 0,0 l/m 0 min 0 min 117 W/m 9,7 km/h (2 Bft) 93,75 %
29.08.2020 18:32 22,1 C 20,6 C 19,4 C 61 % 1005,2 hPa 0,0 l/m 0 min 0 min 114 W/m 9,7 km/h (2 Bft) 95,74 %
29.08.2020 18:34 22,1 C 20,0 C 19,4 C 60 % 1005,2 hPa 0,0 l/m 0 min 0 min 106 W/m 3,2 km/h (1 Bft) 93,75 %
29.08.2020 18:36 21,9 C 20,0 C 19,4 C 61 % 1005,2 hPa 0,0 l/m 0 min 0 min 102 W/m 3,2 km/h (1 Bft) 97,62 %
29.08.2020 18:38 21,7 C 20,0 C 18,9 C 61 % 1005,2 hPa 0,0 l/m 0 min 0 min 96 W/m 6,4 km/h (2 Bft) 93,48 %
29.08.2020 18:40 21,6 C 20,0 C 18,9 C 61 % 1005,2 hPa 0,0 l/m 0 min 0 min 92 W/m 0,0 km/h (0 Bft) 95,74 %
29.08.2020 18:42 21,6 C 20,0 C 18,9 C 62 % 1005,2 hPa 0,0 l/m 0 min 0 min 87 W/m 0,0 km/h (0 Bft) 95,74 %
29.08.2020 18:44 21,4 C 20,0 C 18,9 C 62 % 1005,2 hPa 0,0 l/m 0 min 0 min 84 W/m 3,2 km/h (1 Bft) 96,00 %
29.08.2020 18:46 21,4 C 19,4 C 18,9 C 63 % 1005,2 hPa 0,0 l/m 0 min 0 min 84 W/m 0,0 km/h (0 Bft) 93,88 %
29.08.2020 18:48 21,3 C 19,4 C 18,9 C 64 % 1005,2 hPa 0,0 l/m 0 min 0 min 86 W/m 0,0 km/h (0 Bft) 89,36 %
29.08.2020 18:50 21,2 C 19,4 C 18,9 C 64 % 1005,2 hPa 0,0 l/m 0 min 0 min 86 W/m 0,0 km/h (0 Bft) 93,62 %
29.08.2020 18:52 21,1 C 19,4 C 18,9 C 64 % 1005,2 hPa 0,0 l/m 0 min 0 min 100 W/m 0,0 km/h (0 Bft) 89,36 %
29.08.2020 18:54 21,1 C 19,4 C 18,9 C 64 % 1005,2 hPa 0,0 l/m 0 min 0 min 104 W/m 0,0 km/h (0 Bft) 91,49 %
29.08.2020 18:56 21,0 C 19,4 C 18,9 C 64 % 1005,2 hPa 0,0 l/m 0 min 0 min 105 W/m 0,0 km/h (0 Bft) 94,29 %
29.08.2020 18:58 20,9 C 19,4 C 18,9 C 64 % 1005,3 hPa 0,0 l/m 2 min 0 min 110 W/m 3,2 km/h (1 Bft) 92,86 %
29.08.2020 19:00 20,8 C 19,4 C 18,9 C 65 % 1005,2 hPa 0,0 l/m 2 min 0 min 111 W/m 0,0 km/h (0 Bft) 95,65 %
29.08.2020 19:02 20,8 C 19,4 C 18,9 C 66 % 1005,3 hPa 0,0 l/m 2 min 0 min 114 W/m 3,2 km/h (1 Bft) 95,74 %
29.08.2020 19:04 20,7 C 19,4 C 18,9 C 66 % 1005,2 hPa 0,0 l/m 0 min 0 min 98 W/m 3,2 km/h (1 Bft) 92,00 %
29.08.2020 19:06 20,7 C 19,4 C 18,9 C 67 % 1005,3 hPa 0,0 l/m 0 min 0 min 82 W/m 0,0 km/h (0 Bft) 93,62 %
29.08.2020 19:08 20,6 C 19,4 C 18,9 C 67 % 1005,3 hPa 0,0 l/m 0 min 0 min 77 W/m 0,0 km/h (0 Bft) 95,74 %
29.08.2020 19:10 20,6 C 18,9 C 18,3 C 67 % 1005,3 hPa 0,0 l/m 0 min 0 min 78 W/m 0,0 km/h (0 Bft) 93,62 %
29.08.2020 19:12 20,5 C 18,9 C 18,3 C 67 % 1005,4 hPa 0,0 l/m 0 min 0 min 85 W/m 9,7 km/h (2 Bft) 95,74 %
29.08.2020 19:14 20,4 C 18,9 C 18,3 C 67 % 1005,4 hPa 0,0 l/m 0 min 0 min 86 W/m 0,0 km/h (0 Bft) 94,29 %
29.08.2020 19:16 20,3 C 18,9 C 18,3 C 66 % 1005,4 hPa 0,0 l/m 0 min 0 min 84 W/m 3,2 km/h (1 Bft) 96,36 %
29.08.2020 19:18 20,3 C 18,9 C 18,3 C 67 % 1005,4 hPa 0,0 l/m 0 min 0 min 78 W/m 0,0 km/h (0 Bft) 96,00 %
29.08.2020 19:20 20,3 C 18,9 C 18,3 C 68 % 1005,4 hPa 0,0 l/m 0 min 0 min 70 W/m 0,0 km/h (0 Bft) 95,74 %
29.08.2020 19:22 20,2 C 18,9 C 18,3 C 68 % 1005,5 hPa 0,0 l/m 0 min 0 min 66 W/m 0,0 km/h (0 Bft) 97,83 %
29.08.2020 19:24 20,2 C 18,9 C 18,3 C 68 % 1005,5 hPa 0,0 l/m 0 min 0 min 65 W/m 0,0 km/h (0 Bft) 100,00 %
29.08.2020 19:26 20,1 C 18,9 C 18,3 C 67 % 1005,6 hPa 0,0 l/m 0 min 0 min 61 W/m 0,0 km/h (0 Bft) 97,87 %
29.08.2020 19:28 20,1 C 18,9 C 18,3 C 66 % 1005,6 hPa 0,0 l/m 0 min 0 min 58 W/m 0,0 km/h (0 Bft) 97,87 %
29.08.2020 19:30 20,0 C 18,9 C 18,3 C 66 % 1005,6 hPa 0,0 l/m 0 min 0 min 56 W/m 0,0 km/h (0 Bft) 97,87 %
29.08.2020 19:32 19,9 C 18,3 C 18,3 C 66 % 1005,6 hPa 0,0 l/m 0 min 0 min 54 W/m 9,7 km/h (2 Bft) 97,14 %
29.08.2020 19:34 19,9 C 18,3 C 18,3 C 66 % 1005,6 hPa 0,0 l/m 0 min 0 min 52 W/m 0,0 km/h (0 Bft) 98,21 %
29.08.2020 19:36 19,8 C 18,3 C 17,8 C 67 % 1005,6 hPa 0,0 l/m 0 min 0 min 50 W/m 0,0 km/h (0 Bft) 93,88 %
29.08.2020 19:38 19,8 C 18,3 C 17,8 C 66 % 1005,6 hPa 0,0 l/m 0 min 0 min 47 W/m 3,2 km/h (1 Bft) 97,87 %
29.08.2020 19:40 19,8 C 18,3 C 17,8 C 67 % 1005,6 hPa 0,0 l/m 0 min 0 min 43 W/m 0,0 km/h (0 Bft) 97,87 %
29.08.2020 19:42 19,7 C 18,3 C 17,8 C 67 % 1005,7 hPa 0,0 l/m 0 min 0 min 39 W/m 3,2 km/h (1 Bft) 100,00 %
29.08.2020 19:44 19,7 C 18,3 C 17,8 C 67 % 1005,7 hPa 0,0 l/m 0 min 0 min 36 W/m 3,2 km/h (1 Bft) 97,87 %
29.08.2020 19:46 19,7 C 17,8 C 17,8 C 67 % 1005,7 hPa 0,0 l/m 0 min 0 min 33 W/m 0,0 km/h (0 Bft) 100,00 %
29.08.2020 19:48 19,6 C 17,8 C 17,8 C 67 % 1005,7 hPa 0,0 l/m 0 min 0 min 31 W/m 0,0 km/h (0 Bft) 100,00 %
29.08.2020 19:50 19,6 C 17,8 C 17,8 C 67 % 1005,8 hPa 0,0 l/m 0 min 0 min 26 W/m 3,2 km/h (1 Bft) 100,00 %
29.08.2020 19:52 19,5 C 17,8 C 17,8 C 67 % 1005,8 hPa 0,0 l/m 0 min 0 min 24 W/m 0,0 km/h (0 Bft) 98,18 %
29.08.2020 19:54 19,4 C 17,8 C 17,2 C 68 % 1005,8 hPa 0,0 l/m 0 min 0 min 20 W/m 0,0 km/h (0 Bft) 98,00 %
29.08.2020 19:56 19,4 C 17,8 C 17,2 C 67 % 1005,8 hPa 0,0 l/m 0 min 0 min 19 W/m 0,0 km/h (0 Bft) 100,00 %
29.08.2020 19:58 19,3 C 17,8 C 17,2 C 68 % 1005,8 hPa 0,0 l/m 0 min 0 min 18 W/m 0,0 km/h (0 Bft) 100,00 %
29.08.2020 20:00 19,3 C 17,8 C 17,2 C 68 % 1005,8 hPa 0,0 l/m 0 min 0 min 18 W/m 0,0 km/h (0 Bft) 100,00 %
29.08.2020 20:02 19,2 C 17,8 C 17,2 C 68 % 1005,7 hPa 0,0 l/m 0 min 0 min 18 W/m 0,0 km/h (0 Bft) 100,00 %
29.08.2020 20:04 19,2 C 17,8 C 17,2 C 68 % 1005,7 hPa 0,0 l/m 0 min 0 min 17 W/m 0,0 km/h (0 Bft) 100,00 %
29.08.2020 20:06 19,1 C 17,2 C 17,2 C 68 % 1005,7 hPa 0,0 l/m 0 min 0 min 16 W/m 0,0 km/h (0 Bft) 100,00 %
29.08.2020 20:08 19,1 C 17,2 C 17,2 C 69 % 1005,8 hPa 0,0 l/m 0 min 0 min 14 W/m 0,0 km/h (0 Bft) 100,00 %
29.08.2020 20:10 19,1 C 17,2 C 17,2 C 69 % 1005,8 hPa 0,0 l/m 0 min 0 min 12 W/m 0,0 km/h (0 Bft) 100,00 %
29.08.2020 20:12 19,0 C 17,2 C 17,2 C 69 % 1005,8 hPa 0,0 l/m 0 min 0 min 11 W/m 0,0 km/h (0 Bft) 100,00 %
29.08.2020 20:14 19,0 C 17,2 C 16,7 C 69 % 1005,8 hPa 0,0 l/m 0 min 0 min 10 W/m 0,0 km/h (0 Bft) 100,00 %
29.08.2020 20:16 18,9 C 16,7 C 16,7 C 69 % 1005,8 hPa 0,0 l/m 0 min 0 min 9 W/m 0,0 km/h (0 Bft) 100,00 %
29.08.2020 20:18 18,9 C 16,7 C 16,7 C 70 % 1005,9 hPa 0,0 l/m 0 min 0 min 9 W/m 0,0 km/h (0 Bft) 100,00 %
29.08.2020 20:20 18,8 C 16,7 C 16,7 C 70 % 1005,9 hPa 0,0 l/m 0 min 0 min 7 W/m 0,0 km/h (0 Bft) 100,00 %
29.08.2020 20:22 18,8 C 16,7 C 16,7 C 70 % 1005,9 hPa 0,0 l/m 0 min 0 min 5 W/m 0,0 km/h (0 Bft) 100,00 %
29.08.2020 20:24 18,8 C 16,1 C 16,1 C 70 % 1005,9 hPa 0,0 l/m 0 min 0 min 0 W/m 0,0 km/h (0 Bft) 100,00 %
29.08.2020 20:25 18,7 C 16,7 C 16,1 C 70 % 1005,9 hPa 0,0 l/m 0 min 0 min 0 W/m 0,0 km/h (0 Bft) 100,00 %
29.08.2020 20:28 18,6 C 16,1 C 16,1 C 70 % 1005,9 hPa 0,0 l/m 0 min 0 min 0 W/m 0,0 km/h (0 Bft) 100,00 %
29.08.2020 20:30 18,6 C 16,1 C 16,1 C 71 % 1006,0 hPa 0,0 l/m 0 min 0 min 0 W/m 0,0 km/h (0 Bft) 100,00 %
29.08.2020 20:32 18,5 C 16,1 C 16,1 C 71 % 1006,0 hPa 0,0 l/m 0 min 0 min 0 W/m 0,0 km/h (0 Bft) 100,00 %
29.08.2020 20:34 18,4 C 16,1 C 16,1 C 71 % 1006,0 hPa 0,0 l/m 0 min 0 min 0 W/m 0,0 km/h (0 Bft) 97,67 %
29.08.2020 20:36 18,3 C 16,1 C 16,1 C 71 % 1006,0 hPa 0,0 l/m 0 min 0 min 0 W/m 0,0 km/h (0 Bft) 97,87 %
29.08.2020 20:38 18,3 C 16,1 C 15,6 C 71 % 1006,0 hPa 0,0 l/m 0 min 0 min 0 W/m 0,0 km/h (0 Bft) 100,00 %
29.08.2020 20:40 18,3 C 15,6 C 15,6 C 71 % 1006,0 hPa 0,0 l/m 0 min 0 min 0 W/m 0,0 km/h (0 Bft) 100,00 %
29.08.2020 20:42 18,2 C 15,6 C 15,6 C 72 % 1006,0 hPa 0,0 l/m 0 min 0 min 0 W/m 0,0 km/h (0 Bft) 100,00 %
29.08.2020 20:44 18,1 C 15,6 C 15,0 C 72 % 1006,0 hPa 0,0 l/m 0 min 0 min 0 W/m 0,0 km/h (0 Bft) 97,83 %
29.08.2020 20:46 18,1 C 15,6 C 15,0 C 72 % 1006,1 hPa 0,0 l/m 0 min 0 min 0 W/m 0,0 km/h (0 Bft) 100,00 %
29.08.2020 20:48 18,0 C 15,6 C 15,0 C 72 % 1006,1 hPa 0,0 l/m 0 min 0 min 0 W/m 0,0 km/h (0 Bft) 100,00 %
29.08.2020 20:50 17,9 C 15,0 C 15,0 C 72 % 1006,1 hPa 0,0 l/m 0 min 0 min 0 W/m 0,0 km/h (0 Bft) 100,00 %
29.08.2020 20:52 17,9 C 15,0 C 15,0 C 73 % 1006,1 hPa 0,0 l/m 0 min 0 min 0 W/m 0,0 km/h (0 Bft) 100,00 %
29.08.2020 20:54 17,8 C 15,0 C 15,0 C 73 % 1006,1 hPa 0,0 l/m 0 min 0 min 0 W/m 0,0 km/h (0 Bft) 100,00 %
29.08.2020 20:56 17,7 C 15,0 C 15,0 C 73 % 1006,1 hPa 0,0 l/m 0 min 0 min 0 W/m 0,0 km/h (0 Bft) 100,00 %
29.08.2020 20:58 17,7 C 15,0 C 15,0 C 73 % 1006,2 hPa 0,0 l/m 0 min 0 min 0 W/m 0,0 km/h (0 Bft) 100,00 %
29.08.2020 21:00 17,6 C 15,0 C 14,4 C 73 % 1006,1 hPa 0,0 l/m 0 min 0 min 0 W/m 0,0 km/h (0 Bft) 93,62 %
29.08.2020 21:02 17,6 C 15,0 C 14,4 C 73 % 1006,2 hPa 0,0 l/m 0 min 0 min 0 W/m 0,0 km/h (0 Bft) 97,87 %
29.08.2020 21:04 17,5 C 14,4 C 14,4 C 74 % 1006,2 hPa 0,0 l/m 0 min 0 min 0 W/m 0,0 km/h (0 Bft) 97,87 %
29.08.2020 21:06 17,4 C 14,4 C 14,4 C 74 % 1006,2 hPa 0,0 l/m 0 min 0 min 0 W/m 0,0 km/h (0 Bft) 97,37 %
29.08.2020 21:08 17,3 C 15,0 C 14,4 C 74 % 1006,3 hPa 0,0 l/m 0 min 0 min 0 W/m 0,0 km/h (0 Bft) 97,87 %
29.08.2020 21:10 17,3 C 14,4 C 13,9 C 74 % 1006,3 hPa 0,0 l/m 0 min 0 min 0 W/m 0,0 km/h (0 Bft) 93,62 %
29.08.2020 21:12 17,2 C 14,4 C 13,9 C 74 % 1006,3 hPa 0,0 l/m 0 min 0 min 0 W/m 0,0 km/h (0 Bft) 95,74 %
29.08.2020 21:14 17,2 C 14,4 C 13,9 C 74 % 1006,4 hPa 0,0 l/m 0 min 0 min 0 W/m 0,0 km/h (0 Bft) 95,74 %
29.08.2020 21:16 17,1 C 14,4 C 13,9 C 74 % 1006,4 hPa 0,0 l/m 0 min 0 min 0 W/m 0,0 km/h (0 Bft) 95,65 %
29.08.2020 21:18 17,1 C 14,4 C 13,9 C 74 % 1006,4 hPa 0,0 l/m 0 min 0 min 0 W/m 0,0 km/h (0 Bft) 95,74 %
29.08.2020 21:20 17,0 C 14,4 C 13,9 C 75 % 1006,4 hPa 0,0 l/m 0 min 0 min 0 W/m 0,0 km/h (0 Bft) 95,74 %
29.08.2020 21:22 16,9 C 14,4 C 13,9 C 75 % 1006,4 hPa 0,0 l/m 0 min 0 min 0 W/m 0,0 km/h (0 Bft) 95,74 %
29.08.2020 21:24 16,9 C 14,4 C 13,9 C 75 % 1006,4 hPa 0,0 l/m 0 min 0 min 0 W/m 0,0 km/h (0 Bft) 95,74 %
29.08.2020 21:26 16,8 C 14,4 C 13,9 C 75 % 1006,5 hPa 0,0 l/m 0 min 0 min 0 W/m 0,0 km/h (0 Bft) 89,36 %
29.08.2020 21:28 16,8 C 14,4 C 13,9 C 75 % 1006,4 hPa 0,0 l/m 0 min 0 min 0 W/m 0,0 km/h (0 Bft) 95,65 %
29.08.2020 21:30 16,7 C 14,4 C 13,9 C 76 % 1006,5 hPa 0,0 l/m 0 min 0 min 0 W/m 0,0 km/h (0 Bft) 95,74 %
29.08.2020 21:32 16,7 C 14,4 C 13,3 C 76 % 1006,5 hPa 0,0 l/m 0 min 0 min 0 W/m 0,0 km/h (0 Bft) 97,83 %
29.08.2020 21:34 16,6 C 14,4 C 13,3 C 76 % 1006,5 hPa 0,0 l/m 0 min 0 min 0 W/m 0,0 km/h (0 Bft) 95,74 %
29.08.2020 21:36 16,6 C 14,4 C 13,3 C 76 % 1006,6 hPa 0,0 l/m 0 min 0 min 0 W/m 0,0 km/h (0 Bft) 95,74 %
29.08.2020 21:38 16,5 C 13,9 C 13,3 C 76 % 1006,6 hPa 0,0 l/m 0 min 0 min 0 W/m 0,0 km/h (0 Bft) 95,65 %
29.08.2020 21:40 16,4 C 13,9 C 13,3 C 76 % 1006,6 hPa 0,0 l/m 0 min 0 min 0 W/m 0,0 km/h (0 Bft) 95,74 %
29.08.2020 21:42 16,4 C 13,9 C 13,3 C 77 % 1006,6 hPa 0,0 l/m 0 min 0 min 0 W/m 0,0 km/h (0 Bft) 95,74 %
29.08.2020 21:44 16,3 C 13,9 C 13,3 C 77 % 1006,7 hPa 0,0 l/m 0 min 0 min 0 W/m 0,0 km/h (0 Bft) 93,62 %
29.08.2020 21:46 16,3 C 13,9 C 13,3 C 77 % 1006,7 hPa 0,0 l/m 0 min 0 min 0 W/m 0,0 km/h (0 Bft) 95,74 %
29.08.2020 21:48 16,2 C 13,9 C 13,3 C 77 % 1006,7 hPa 0,0 l/m 0 min 0 min 0 W/m 0,0 km/h (0 Bft) 97,87 %
29.08.2020 21:50 16,2 C 13,9 C 13,3 C 77 % 1006,7 hPa 0,0 l/m 0 min 0 min 0 W/m 0,0 km/h (0 Bft) 95,74 %
29.08.2020 21:52 16,1 C 13,9 C 13,3 C 77 % 1006,7 hPa 0,0 l/m 0 min 0 min 0 W/m 0,0 km/h (0 Bft) 97,83 %
29.08.2020 21:54 16,1 C 13,9 C 13,3 C 77 % 1006,8 hPa 0,0 l/m 0 min 0 min 0 W/m 0,0 km/h (0 Bft) 95,74 %
29.08.2020 21:56 16,1 C 13,9 C 13,3 C 78 % 1006,8 hPa 0,0 l/m 0 min 0 min 0 W/m 0,0 km/h (0 Bft) 97,87 %
29.08.2020 21:58 16,0 C 13,9 C 13,3 C 78 % 1006,8 hPa 0,0 l/m 0 min 0 min 0 W/m 0,0 km/h (0 Bft) 100,00 %
29.08.2020 22:00 15,9 C 13,9 C 13,3 C 78 % 1006,8 hPa 0,0 l/m 0 min 0 min 0 W/m 0,0 km/h (0 Bft) 97,87 %
29.08.2020 22:02 15,9 C 13,9 C 13,3 C 78 % 1006,8 hPa 0,0 l/m 0 min 0 min 0 W/m 0,0 km/h (0 Bft) 97,83 %
29.08.2020 22:04 15,8 C 13,9 C 12,8 C 78 % 1006,8 hPa 0,0 l/m 0 min 0 min 0 W/m 0,0 km/h (0 Bft) 100,00 %
29.08.2020 22:06 15,8 C 13,3 C 12,8 C 78 % 1006,8 hPa 0,0 l/m 0 min 0 min 0 W/m 0,0 km/h (0 Bft) 100,00 %
29.08.2020 22:08 15,8 C 13,3 C 12,8 C 78 % 1006,8 hPa 0,0 l/m 0 min 0 min 0 W/m 0,0 km/h (0 Bft) 98,18 %
29.08.2020 22:10 15,7 C 13,3 C 12,8 C 78 % 1006,8 hPa 0,0 l/m 0 min 0 min 0 W/m 0,0 km/h (0 Bft) 100,00 %
29.08.2020 22:12 15,7 C 13,3 C 12,8 C 79 % 1006,8 hPa 0,0 l/m 0 min 0 min 0 W/m 0,0 km/h (0 Bft) 97,87 %
29.08.2020 22:14 15,6 C 13,3 C 12,8 C 79 % 1006,8 hPa 0,0 l/m 0 min 0 min 0 W/m 0,0 km/h (0 Bft) 97,87 %
29.08.2020 22:16 15,6 C 13,3 C 12,8 C 79 % 1006,9 hPa 0,0 l/m 0 min 0 min 0 W/m 0,0 km/h (0 Bft) 100,00 %
29.08.2020 22:18 15,6 C 13,3 C 12,8 C 79 % 1006,9 hPa 0,0 l/m 0 min 0 min 0 W/m 0,0 km/h (0 Bft) 100,00 %
29.08.2020 22:20 15,6 C 13,3 C 12,8 C 79 % 1007,0 hPa 0,0 l/m 0 min 0 min 0 W/m 0,0 km/h (0 Bft) 100,00 %
29.08.2020 22:22 15,5 C 12,8 C 12,2 C 80 % 1007,0 hPa 0,0 l/m 0 min 0 min 0 W/m 0,0 km/h (0 Bft) 100,00 %
29.08.2020 22:24 15,4 C 12,8 C 12,2 C 80 % 1007,0 hPa 0,0 l/m 0 min 0 min 0 W/m 0,0 km/h (0 Bft) 100,00 %
29.08.2020 22:26 15,4 C 12,8 C 12,2 C 80 % 1007,0 hPa 0,0 l/m 0 min 0 min 0 W/m 0,0 km/h (0 Bft) 93,62 %
29.08.2020 22:28 15,3 C 12,8 C 12,2 C 80 % 1007,0 hPa 0,0 l/m 0 min 0 min 0 W/m 0,0 km/h (0 Bft) 100,00 %
29.08.2020 22:30 15,3 C 12,8 C 12,2 C 81 % 1007,0 hPa 0,0 l/m 0 min 0 min 0 W/m 0,0 km/h (0 Bft) 97,83 %
29.08.2020 22:32 15,2 C 12,8 C 12,2 C 81 % 1007,0 hPa 0,0 l/m 0 min 0 min 0 W/m 0,0 km/h (0 Bft) 97,87 %
29.08.2020 22:34 15,2 C 12,8 C 12,2 C 81 % 1007,1 hPa 0,0 l/m 0 min 0 min 0 W/m 0,0 km/h (0 Bft) 100,00 %
29.08.2020 22:36 15,2 C 12,8 C 12,2 C 81 % 1007,0 hPa 0,0 l/m 0 min 0 min 0 W/m 0,0 km/h (0 Bft) 100,00 %
29.08.2020 22:38 15,1 C 12,8 C 12,2 C 81 % 1007,1 hPa 0,0 l/m 0 min 0 min 0 W/m 0,0 km/h (0 Bft) 100,00 %
29.08.2020 22:40 15,1 C 12,8 C 12,2 C 81 % 1007,1 hPa 0,0 l/m 0 min 0 min 0 W/m 0,0 km/h (0 Bft) 97,87 %
29.08.2020 22:42 15,1 C 12,8 C 12,2 C 81 % 1007,1 hPa 0,0 l/m 0 min 0 min 0 W/m 0,0 km/h (0 Bft) 100,00 %
29.08.2020 22:44 15,0 C 12,8 C 12,2 C 81 % 1007,1 hPa 0,0 l/m 0 min 0 min 0 W/m 0,0 km/h (0 Bft) 63,83 %
29.08.2020 22:46 14,9 C 12,8 C 12,2 C 82 % 1007,2 hPa 0,0 l/m 0 min 0 min 0 W/m 0,0 km/h (0 Bft) 90,70 %
29.08.2020 22:48 14,9 C 12,8 C 12,2 C 82 % 1007,2 hPa 0,0 l/m 0 min 0 min 0 W/m 0,0 km/h (0 Bft) 97,87 %
29.08.2020 22:50 14,8 C 12,2 C 12,2 C 82 % 1007,2 hPa 0,0 l/m 0 min 0 min 0 W/m 0,0 km/h (0 Bft) 97,87 %
29.08.2020 22:52 14,8 C 12,2 C 11,7 C 82 % 1007,2 hPa 0,0 l/m 0 min 0 min 0 W/m 0,0 km/h (0 Bft) 95,65 %
29.08.2020 22:54 14,8 C 12,2 C 11,7 C 82 % 1007,2 hPa 0,0 l/m 0 min 0 min 0 W/m 0,0 km/h (0 Bft) 95,74 %
29.08.2020 22:56 14,7 C 12,2 C 11,7 C 82 % 1007,2 hPa 0,0 l/m 0 min 0 min 0 W/m 0,0 km/h (0 Bft) 95,74 %
29.08.2020 22:58 14,7 C 12,2 C 11,7 C 83 % 1007,2 hPa 0,0 l/m 0 min 0 min 0 W/m 0,0 km/h (0 Bft) 97,87 %
29.08.2020 23:00 14,6 C 12,2 C 11,7 C 83 % 1007,2 hPa 0,0 l/m 0 min 0 min 0 W/m 0,0 km/h (0 Bft) 97,87 %
29.08.2020 23:02 14,6 C 12,2 C 11,7 C 83 % 1007,2 hPa 0,0 l/m 0 min 0 min 0 W/m 0,0 km/h (0 Bft) 95,74 %
29.08.2020 23:04 14,6 C 12,2 C 11,7 C 83 % 1007,2 hPa 0,0 l/m 0 min 0 min 0 W/m 0,0 km/h (0 Bft) 97,83 %
29.08.2020 23:06 14,5 C 12,2 C 11,7 C 83 % 1007,2 hPa 0,0 l/m 0 min 0 min 0 W/m 0,0 km/h (0 Bft) 97,87 %
29.08.2020 23:08 14,4 C 12,2 C 11,7 C 83 % 1007,2 hPa 0,0 l/m 0 min 0 min 0 W/m 0,0 km/h (0 Bft) 95,74 %
29.08.2020 23:10 14,4 C 12,2 C 11,7 C 83 % 1007,2 hPa 0,0 l/m 0 min 0 min 0 W/m 0,0 km/h (0 Bft) 97,87 %
29.08.2020 23:12 14,3 C 12,8 C 11,7 C 83 % 1007,3 hPa 0,0 l/m 0 min 0 min 0 W/m 0,0 km/h (0 Bft) 97,87 %
29.08.2020 23:14 14,3 C 12,8 C 11,7 C 83 % 1007,2 hPa 0,0 l/m 0 min 0 min 0 W/m 0,0 km/h (0 Bft) 93,62 %
29.08.2020 23:16 14,3 C 12,8 C 11,7 C 84 % 1007,3 hPa 0,0 l/m 0 min 0 min 0 W/m 0,0 km/h (0 Bft) 95,65 %
29.08.2020 23:18 14,3 C 12,8 C 11,7 C 84 % 1007,3 hPa 0,0 l/m 0 min 0 min 0 W/m 0,0 km/h (0 Bft) 95,74 %
29.08.2020 23:20 14,3 C 12,2 C 11,7 C 84 % 1007,3 hPa 0,0 l/m 0 min 0 min 0 W/m 0,0 km/h (0 Bft) 95,74 %
29.08.2020 23:22 14,3 C 12,2 C 11,7 C 84 % 1007,3 hPa 0,0 l/m 0 min 0 min 0 W/m 0,0 km/h (0 Bft) 93,62 %
29.08.2020 23:24 14,2 C 12,2 C 11,7 C 84 % 1007,2 hPa 0,0 l/m 0 min 0 min 0 W/m 0,0 km/h (0 Bft) 95,74 %
29.08.2020 23:26 14,2 C 12,2 C 11,7 C 84 % 1007,2 hPa 0,0 l/m 0 min 0 min 0 W/m 0,0 km/h (0 Bft) 95,74 %
29.08.2020 23:28 14,1 C 12,2 C 11,7 C 84 % 1007,2 hPa 0,0 l/m 0 min 0 min 0 W/m 0,0 km/h (0 Bft) 95,65 %
29.08.2020 23:30 14,1 C 12,2 C 11,7 C 84 % 1007,2 hPa 0,0 l/m 0 min 0 min 0 W/m 0,0 km/h (0 Bft) 95,74 %
29.08.2020 23:32 14,1 C 12,2 C 11,7 C 84 % 1007,2 hPa 0,0 l/m 0 min 0 min 0 W/m 0,0 km/h (0 Bft) 95,74 %
29.08.2020 23:34 14,0 C 12,2 C 11,7 C 84 % 1007,2 hPa 0,0 l/m 0 min 0 min 0 W/m 0,0 km/h (0 Bft) 95,74 %
29.08.2020 23:36 14,0 C 12,2 C 11,7 C 84 % 1007,2 hPa 0,0 l/m 0 min 0 min 0 W/m 0,0 km/h (0 Bft) 93,62 %
29.08.2020 23:38 13,9 C 12,2 C 11,7 C 84 % 1007,2 hPa 0,0 l/m 0 min 0 min 0 W/m 0,0 km/h (0 Bft) 93,88 %
29.08.2020 23:40 13,9 C 12,2 C 11,7 C 84 % 1007,2 hPa 0,0 l/m 0 min 0 min 0 W/m 0,0 km/h (0 Bft) 95,74 %
29.08.2020 23:42 13,9 C 12,2 C 11,7 C 84 % 1007,2 hPa 0,0 l/m 0 min 0 min 0 W/m 0,0 km/h (0 Bft) 95,74 %
29.08.2020 23:44 13,8 C 12,2 C 11,7 C 84 % 1007,2 hPa 0,0 l/m 0 min 0 min 0 W/m 0,0 km/h (0 Bft) 95,74 %
29.08.2020 23:46 13,8 C 11,7 C 11,7 C 84 % 1007,3 hPa 0,0 l/m 0 min 0 min 0 W/m 0,0 km/h (0 Bft) 97,87 %
29.08.2020 23:48 13,8 C 11,7 C 11,1 C 84 % 1007,3 hPa 0,0 l/m 0 min 0 min 0 W/m 0,0 km/h (0 Bft) 97,87 %
29.08.2020 23:50 13,8 C 11,7 C 11,1 C 84 % 1007,3 hPa 0,0 l/m 0 min 0 min 0 W/m 0,0 km/h (0 Bft) 97,83 %
29.08.2020 23:52 13,7 C 11,7 C 11,1 C 85 % 1007,3 hPa 0,0 l/m 0 min 0 min 0 W/m 0,0 km/h (0 Bft) 97,87 %
29.08.2020 23:54 13,7 C 11,7 C 11,1 C 85 % 1007,3 hPa 0,0 l/m 0 min 0 min 0 W/m 0,0 km/h (0 Bft) 97,87 %
29.08.2020 23:56 13,7 C 11,7 C 11,1 C 85 % 1007,4 hPa 0,0 l/m 0 min 0 min 0 W/m 0,0 km/h (0 Bft) 97,87 %
29.08.2020 23:58 13,6 C 11,7 C 11,1 C 85 % 1007,4 hPa 0,0 l/m 0 min 0 min 0 W/m 0,0 km/h (0 Bft) 97,87 %
_ Min-Zeit 04:48 04:36 23:48 16:54 00:00 - - - - 00:00 22:44
Minimum _ 12,8 C 11,7 C 11,1 C 52 % 1001,5 hPa - - - - 0,0 km/h (0 Bft) 63,83 %
_ Max-Zeit 16:52 12:16 10:02 05:12 23:56 00:00 12:08 00:00 13:44 09:52 00:40
Maximum _ 23,1 C 27,2 C 23,9 C 92 % 1007,4 hPa 0,0 l/m 4 min 0 min 1005 W/m 41,8 km/h
S-SO (6 Bft)
100,00 %
Durchschnitt _ 17,0 C 17,2 C 15,9 C 77 % 1004,1 hPa #0,0 l/m #6:14 h #0 min. 342 W/m 7,3 km/h (2 Bft) 97,46 %
© 2020 W. Hausmann